<?xml version="1.0" encoding="UTF-8" standalone="no" ?>
<gpx xmlns="http://www.topografix.com/GPX/1/1" xmlns:xsi="http://www.w3.org/2001/XMLSchema-instance" xsi:schemaLocation="http://www.topografix.com/GPX/1/1 http://www.topografix.com/GPX/1/1/gpx.xsd" version="1.1" creator="VisuGPX - https://www.visugpx.com">
  <metadata>
    <name>irigny 40kms</name>
    <desc><![CDATA[irigny 2012]]></desc>
  </metadata>
  <trk>
    <name><![CDATA[ACTIVE LOG]]></name>
    <trkseg>
      <trkpt lat="45.66982" lon="4.80798">
        <ele>239</ele>
        <time>2006-09-21T14:59:52Z</time>
      </trkpt>
      <trkpt lat="45.66982" lon="4.80798">
        <ele>239</ele>
        <time>2006-09-21T15:00:01Z</time>
      </trkpt>
      <trkpt lat="45.66982" lon="4.80794">
        <ele>239</ele>
        <time>2006-09-21T15:00:03Z</time>
      </trkpt>
      <trkpt lat="45.66978" lon="4.80744">
        <ele>240</ele>
        <time>2006-09-21T15:00:14Z</time>
      </trkpt>
      <trkpt lat="45.66972" lon="4.80695">
        <ele>242</ele>
        <time>2006-09-21T15:00:24Z</time>
      </trkpt>
      <trkpt lat="45.66924" lon="4.80691">
        <ele>243</ele>
        <time>2006-09-21T15:00:37Z</time>
      </trkpt>
      <trkpt lat="45.66847" lon="4.8068">
        <ele>243</ele>
        <time>2006-09-21T15:00:54Z</time>
      </trkpt>
      <trkpt lat="45.66742" lon="4.80648">
        <ele>242</ele>
        <time>2006-09-21T15:01:13Z</time>
      </trkpt>
      <trkpt lat="45.66624" lon="4.80598">
        <ele>242</ele>
        <time>2006-09-21T15:01:34Z</time>
      </trkpt>
      <trkpt lat="45.66637" lon="4.80581">
        <ele>242</ele>
        <time>2006-09-21T15:01:45Z</time>
      </trkpt>
      <trkpt lat="45.66643" lon="4.80575">
        <ele>242</ele>
        <time>2006-09-21T15:01:48Z</time>
      </trkpt>
      <trkpt lat="45.66615" lon="4.8054">
        <ele>241</ele>
        <time>2006-09-21T15:01:52Z</time>
      </trkpt>
      <trkpt lat="45.66607" lon="4.80525">
        <ele>242</ele>
        <time>2006-09-21T15:01:54Z</time>
      </trkpt>
      <trkpt lat="45.66626" lon="4.80482">
        <ele>241</ele>
        <time>2006-09-21T15:02:05Z</time>
      </trkpt>
      <trkpt lat="45.66626" lon="4.80459">
        <ele>241</ele>
        <time>2006-09-21T15:02:10Z</time>
      </trkpt>
      <trkpt lat="45.66628" lon="4.80452">
        <ele>241</ele>
        <time>2006-09-21T15:02:12Z</time>
      </trkpt>
      <trkpt lat="45.66633" lon="4.80437">
        <ele>240</ele>
        <time>2006-09-21T15:02:18Z</time>
      </trkpt>
      <trkpt lat="45.66639" lon="4.80429">
        <ele>240</ele>
        <time>2006-09-21T15:02:22Z</time>
      </trkpt>
      <trkpt lat="45.66671" lon="4.80349">
        <ele>242</ele>
        <time>2006-09-21T15:02:45Z</time>
      </trkpt>
      <trkpt lat="45.66699" lon="4.80276">
        <ele>245</ele>
        <time>2006-09-21T15:03:05Z</time>
      </trkpt>
      <trkpt lat="45.66744" lon="4.80182">
        <ele>246</ele>
        <time>2006-09-21T15:03:31Z</time>
      </trkpt>
      <trkpt lat="45.66781" lon="4.80193">
        <ele>248</ele>
        <time>2006-09-21T15:03:44Z</time>
      </trkpt>
      <trkpt lat="45.668" lon="4.80199">
        <ele>248</ele>
        <time>2006-09-21T15:03:50Z</time>
      </trkpt>
      <trkpt lat="45.66806" lon="4.80188">
        <ele>248</ele>
        <time>2006-09-21T15:03:54Z</time>
      </trkpt>
      <trkpt lat="45.66817" lon="4.80154">
        <ele>249</ele>
        <time>2006-09-21T15:04:03Z</time>
      </trkpt>
      <trkpt lat="45.6686" lon="4.80158">
        <ele>249</ele>
        <time>2006-09-21T15:04:14Z</time>
      </trkpt>
      <trkpt lat="45.6692" lon="4.80171">
        <ele>249</ele>
        <time>2006-09-21T15:04:28Z</time>
      </trkpt>
      <trkpt lat="45.66927" lon="4.80156">
        <ele>249</ele>
        <time>2006-09-21T15:04:32Z</time>
      </trkpt>
      <trkpt lat="45.66933" lon="4.80111">
        <ele>250</ele>
        <time>2006-09-21T15:04:40Z</time>
      </trkpt>
      <trkpt lat="45.66931" lon="4.80025">
        <ele>251</ele>
        <time>2006-09-21T15:04:53Z</time>
      </trkpt>
      <trkpt lat="45.66937" lon="4.80002">
        <ele>251</ele>
        <time>2006-09-21T15:04:58Z</time>
      </trkpt>
      <trkpt lat="45.6701" lon="4.79982">
        <ele>250</ele>
        <time>2006-09-21T15:05:13Z</time>
      </trkpt>
      <trkpt lat="45.67017" lon="4.79982">
        <ele>250</ele>
        <time>2006-09-21T15:05:15Z</time>
      </trkpt>
      <trkpt lat="45.67019" lon="4.79965">
        <ele>249</ele>
        <time>2006-09-21T15:05:20Z</time>
      </trkpt>
      <trkpt lat="45.67025" lon="4.79955">
        <ele>249</ele>
        <time>2006-09-21T15:05:24Z</time>
      </trkpt>
      <trkpt lat="45.67098" lon="4.7998">
        <ele>250</ele>
        <time>2006-09-21T15:05:45Z</time>
      </trkpt>
      <trkpt lat="45.67107" lon="4.79982">
        <ele>250</ele>
        <time>2006-09-21T15:05:47Z</time>
      </trkpt>
      <trkpt lat="45.67115" lon="4.79972">
        <ele>250</ele>
        <time>2006-09-21T15:05:51Z</time>
      </trkpt>
      <trkpt lat="45.6712" lon="4.79944">
        <ele>250</ele>
        <time>2006-09-21T15:05:56Z</time>
      </trkpt>
      <trkpt lat="45.67139" lon="4.79948">
        <ele>250</ele>
        <time>2006-09-21T15:06:02Z</time>
      </trkpt>
      <trkpt lat="45.67253" lon="4.80002">
        <ele>252</ele>
        <time>2006-09-21T15:06:27Z</time>
      </trkpt>
      <trkpt lat="45.6727" lon="4.8001">
        <ele>252</ele>
        <time>2006-09-21T15:06:31Z</time>
      </trkpt>
      <trkpt lat="45.67281" lon="4.80006">
        <ele>252</ele>
        <time>2006-09-21T15:06:35Z</time>
      </trkpt>
      <trkpt lat="45.67302" lon="4.79959">
        <ele>252</ele>
        <time>2006-09-21T15:06:46Z</time>
      </trkpt>
      <trkpt lat="45.67311" lon="4.79942">
        <ele>253</ele>
        <time>2006-09-21T15:07:19Z</time>
      </trkpt>
      <trkpt lat="45.67298" lon="4.79935">
        <ele>252</ele>
        <time>2006-09-21T15:07:26Z</time>
      </trkpt>
      <trkpt lat="45.67285" lon="4.79929">
        <ele>252</ele>
        <time>2006-09-21T15:07:38Z</time>
      </trkpt>
      <trkpt lat="45.67229" lon="4.79903">
        <ele>251</ele>
        <time>2006-09-21T15:07:52Z</time>
      </trkpt>
      <trkpt lat="45.67152" lon="4.79864">
        <ele>251</ele>
        <time>2006-09-21T15:08:10Z</time>
      </trkpt>
      <trkpt lat="45.67137" lon="4.79839">
        <ele>251</ele>
        <time>2006-09-21T15:09:00Z</time>
      </trkpt>
      <trkpt lat="45.67141" lon="4.79856">
        <ele>251</ele>
        <time>2006-09-21T15:09:19Z</time>
      </trkpt>
      <trkpt lat="45.67135" lon="4.7977">
        <ele>251</ele>
        <time>2006-09-21T15:09:36Z</time>
      </trkpt>
      <trkpt lat="45.67143" lon="4.79815">
        <ele>252</ele>
        <time>2006-09-21T15:10:04Z</time>
      </trkpt>
      <trkpt lat="45.67141" lon="4.79852">
        <ele>251</ele>
        <time>2006-09-21T15:10:47Z</time>
      </trkpt>
      <trkpt lat="45.67152" lon="4.79854">
        <ele>251</ele>
        <time>2006-09-21T15:10:51Z</time>
      </trkpt>
      <trkpt lat="45.67233" lon="4.79899">
        <ele>250</ele>
        <time>2006-09-21T15:11:10Z</time>
      </trkpt>
      <trkpt lat="45.67313" lon="4.7994">
        <ele>251</ele>
        <time>2006-09-21T15:11:28Z</time>
      </trkpt>
      <trkpt lat="45.67313" lon="4.79933">
        <ele>252</ele>
        <time>2006-09-21T15:12:00Z</time>
      </trkpt>
      <trkpt lat="45.67205" lon="4.79884">
        <ele>252</ele>
        <time>2006-09-21T15:12:23Z</time>
      </trkpt>
      <trkpt lat="45.6715" lon="4.79856">
        <ele>252</ele>
        <time>2006-09-21T15:12:35Z</time>
      </trkpt>
      <trkpt lat="45.67143" lon="4.79832">
        <ele>252</ele>
        <time>2006-09-21T15:12:39Z</time>
      </trkpt>
      <trkpt lat="45.67141" lon="4.79785">
        <ele>252</ele>
        <time>2006-09-21T15:12:46Z</time>
      </trkpt>
      <trkpt lat="45.67139" lon="4.79772">
        <ele>251</ele>
        <time>2006-09-21T15:12:48Z</time>
      </trkpt>
      <trkpt lat="45.6713" lon="4.79746">
        <ele>250</ele>
        <time>2006-09-21T15:12:52Z</time>
      </trkpt>
      <trkpt lat="45.6707" lon="4.7959">
        <ele>249</ele>
        <time>2006-09-21T15:13:20Z</time>
      </trkpt>
      <trkpt lat="45.67064" lon="4.79564">
        <ele>249</ele>
        <time>2006-09-21T15:13:24Z</time>
      </trkpt>
      <trkpt lat="45.67057" lon="4.79547">
        <ele>249</ele>
        <time>2006-09-21T15:13:27Z</time>
      </trkpt>
      <trkpt lat="45.67027" lon="4.79532">
        <ele>248</ele>
        <time>2006-09-21T15:13:36Z</time>
      </trkpt>
      <trkpt lat="45.66961" lon="4.79536">
        <ele>252</ele>
        <time>2006-09-21T15:13:58Z</time>
      </trkpt>
      <trkpt lat="45.66912" lon="4.79519">
        <ele>254</ele>
        <time>2006-09-21T15:14:15Z</time>
      </trkpt>
      <trkpt lat="45.66864" lon="4.7948">
        <ele>257</ele>
        <time>2006-09-21T15:14:35Z</time>
      </trkpt>
      <trkpt lat="45.66824" lon="4.79435">
        <ele>257</ele>
        <time>2006-09-21T15:14:48Z</time>
      </trkpt>
      <trkpt lat="45.66751" lon="4.7936">
        <ele>257</ele>
        <time>2006-09-21T15:15:06Z</time>
      </trkpt>
      <trkpt lat="45.66723" lon="4.79341">
        <ele>258</ele>
        <time>2006-09-21T15:15:13Z</time>
      </trkpt>
      <trkpt lat="45.66699" lon="4.79313">
        <ele>260</ele>
        <time>2006-09-21T15:15:20Z</time>
      </trkpt>
      <trkpt lat="45.66643" lon="4.79214">
        <ele>262</ele>
        <time>2006-09-21T15:15:41Z</time>
      </trkpt>
      <trkpt lat="45.66635" lon="4.79208">
        <ele>262</ele>
        <time>2006-09-21T15:15:43Z</time>
      </trkpt>
      <trkpt lat="45.66624" lon="4.79171">
        <ele>263</ele>
        <time>2006-09-21T15:15:50Z</time>
      </trkpt>
      <trkpt lat="45.66613" lon="4.79163">
        <ele>263</ele>
        <time>2006-09-21T15:15:53Z</time>
      </trkpt>
      <trkpt lat="45.666" lon="4.79152">
        <ele>264</ele>
        <time>2006-09-21T15:15:57Z</time>
      </trkpt>
      <trkpt lat="45.66594" lon="4.79163">
        <ele>263</ele>
        <time>2006-09-21T15:16:02Z</time>
      </trkpt>
      <trkpt lat="45.66596" lon="4.79171">
        <ele>263</ele>
        <time>2006-09-21T15:16:04Z</time>
      </trkpt>
      <trkpt lat="45.66557" lon="4.79216">
        <ele>263</ele>
        <time>2006-09-21T15:16:16Z</time>
      </trkpt>
      <trkpt lat="45.66512" lon="4.7927">
        <ele>262</ele>
        <time>2006-09-21T15:16:30Z</time>
      </trkpt>
      <trkpt lat="45.66461" lon="4.79332">
        <ele>262</ele>
        <time>2006-09-21T15:16:45Z</time>
      </trkpt>
      <trkpt lat="45.66364" lon="4.79362">
        <ele>263</ele>
        <time>2006-09-21T15:17:06Z</time>
      </trkpt>
      <trkpt lat="45.66263" lon="4.79403">
        <ele>262</ele>
        <time>2006-09-21T15:17:27Z</time>
      </trkpt>
      <trkpt lat="45.66233" lon="4.79416">
        <ele>262</ele>
        <time>2006-09-21T15:17:34Z</time>
      </trkpt>
      <trkpt lat="45.66221" lon="4.79397">
        <ele>262</ele>
        <time>2006-09-21T15:17:40Z</time>
      </trkpt>
      <trkpt lat="45.66231" lon="4.79257">
        <ele>263</ele>
        <time>2006-09-21T15:18:00Z</time>
      </trkpt>
      <trkpt lat="45.66231" lon="4.79101">
        <ele>264</ele>
        <time>2006-09-21T15:18:23Z</time>
      </trkpt>
      <trkpt lat="45.66231" lon="4.79094">
        <ele>264</ele>
        <time>2006-09-21T15:18:24Z</time>
      </trkpt>
      <trkpt lat="45.66206" lon="4.78974">
        <ele>265</ele>
        <time>2006-09-21T15:18:42Z</time>
      </trkpt>
      <trkpt lat="45.66218" lon="4.78961">
        <ele>266</ele>
        <time>2006-09-21T15:18:47Z</time>
      </trkpt>
      <trkpt lat="45.6624" lon="4.78957">
        <ele>265</ele>
        <time>2006-09-21T15:18:52Z</time>
      </trkpt>
      <trkpt lat="45.6624" lon="4.7891">
        <ele>265</ele>
        <time>2006-09-21T15:19:02Z</time>
      </trkpt>
      <trkpt lat="45.66223" lon="4.78796">
        <ele>267</ele>
        <time>2006-09-21T15:19:23Z</time>
      </trkpt>
      <trkpt lat="45.66225" lon="4.78794">
        <ele>268</ele>
        <time>2006-09-21T15:19:39Z</time>
      </trkpt>
      <trkpt lat="45.66268" lon="4.78785">
        <ele>267</ele>
        <time>2006-09-21T15:19:49Z</time>
      </trkpt>
      <trkpt lat="45.66386" lon="4.78755">
        <ele>266</ele>
        <time>2006-09-21T15:20:07Z</time>
      </trkpt>
      <trkpt lat="45.66478" lon="4.78731">
        <ele>265</ele>
        <time>2006-09-21T15:20:19Z</time>
      </trkpt>
      <trkpt lat="45.66485" lon="4.78712">
        <ele>265</ele>
        <time>2006-09-21T15:20:24Z</time>
      </trkpt>
      <trkpt lat="45.66476" lon="4.78605">
        <ele>268</ele>
        <time>2006-09-21T15:20:43Z</time>
      </trkpt>
      <trkpt lat="45.66461" lon="4.78476">
        <ele>268</ele>
        <time>2006-09-21T15:21:02Z</time>
      </trkpt>
      <trkpt lat="45.6645" lon="4.78425">
        <ele>267</ele>
        <time>2006-09-21T15:21:08Z</time>
      </trkpt>
      <trkpt lat="45.66424" lon="4.78362">
        <ele>265</ele>
        <time>2006-09-21T15:21:16Z</time>
      </trkpt>
      <trkpt lat="45.66429" lon="4.78352">
        <ele>265</ele>
        <time>2006-09-21T15:21:24Z</time>
      </trkpt>
      <trkpt lat="45.66431" lon="4.78352">
        <ele>265</ele>
        <time>2006-09-21T15:21:29Z</time>
      </trkpt>
      <trkpt lat="45.66469" lon="4.78343">
        <ele>265</ele>
        <time>2006-09-21T15:21:41Z</time>
      </trkpt>
      <trkpt lat="45.66557" lon="4.78328">
        <ele>265</ele>
        <time>2006-09-21T15:21:56Z</time>
      </trkpt>
      <trkpt lat="45.66626" lon="4.7836">
        <ele>264</ele>
        <time>2006-09-21T15:22:09Z</time>
      </trkpt>
      <trkpt lat="45.6665" lon="4.78369">
        <ele>263</ele>
        <time>2006-09-21T15:22:14Z</time>
      </trkpt>
      <trkpt lat="45.66678" lon="4.78349">
        <ele>262</ele>
        <time>2006-09-21T15:22:21Z</time>
      </trkpt>
      <trkpt lat="45.66699" lon="4.78296">
        <ele>261</ele>
        <time>2006-09-21T15:22:30Z</time>
      </trkpt>
      <trkpt lat="45.66712" lon="4.78249">
        <ele>257</ele>
        <time>2006-09-21T15:22:35Z</time>
      </trkpt>
      <trkpt lat="45.66703" lon="4.78219">
        <ele>257</ele>
        <time>2006-09-21T15:22:42Z</time>
      </trkpt>
      <trkpt lat="45.66673" lon="4.78139">
        <ele>260</ele>
        <time>2006-09-21T15:22:58Z</time>
      </trkpt>
      <trkpt lat="45.66652" lon="4.78079">
        <ele>260</ele>
        <time>2006-09-21T15:23:10Z</time>
      </trkpt>
      <trkpt lat="45.66581" lon="4.77993">
        <ele>263</ele>
        <time>2006-09-21T15:23:33Z</time>
      </trkpt>
      <trkpt lat="45.66493" lon="4.77944">
        <ele>263</ele>
        <time>2006-09-21T15:23:55Z</time>
      </trkpt>
      <trkpt lat="45.66482" lon="4.7794">
        <ele>263</ele>
        <time>2006-09-21T15:23:58Z</time>
      </trkpt>
      <trkpt lat="45.66478" lon="4.7785">
        <ele>264</ele>
        <time>2006-09-21T15:24:11Z</time>
      </trkpt>
      <trkpt lat="45.66472" lon="4.77721">
        <ele>264</ele>
        <time>2006-09-21T15:24:28Z</time>
      </trkpt>
      <trkpt lat="45.66448" lon="4.77706">
        <ele>264</ele>
        <time>2006-09-21T15:24:34Z</time>
      </trkpt>
      <trkpt lat="45.66349" lon="4.77734">
        <ele>260</ele>
        <time>2006-09-21T15:24:51Z</time>
      </trkpt>
      <trkpt lat="45.66332" lon="4.77738">
        <ele>259</ele>
        <time>2006-09-21T15:24:54Z</time>
      </trkpt>
      <trkpt lat="45.66315" lon="4.77723">
        <ele>259</ele>
        <time>2006-09-21T15:24:58Z</time>
      </trkpt>
      <trkpt lat="45.66304" lon="4.77701">
        <ele>258</ele>
        <time>2006-09-21T15:25:01Z</time>
      </trkpt>
      <trkpt lat="45.66281" lon="4.77663">
        <ele>258</ele>
        <time>2006-09-21T15:25:07Z</time>
      </trkpt>
      <trkpt lat="45.66255" lon="4.77592">
        <ele>258</ele>
        <time>2006-09-21T15:25:17Z</time>
      </trkpt>
      <trkpt lat="45.66253" lon="4.77562">
        <ele>258</ele>
        <time>2006-09-21T15:25:22Z</time>
      </trkpt>
      <trkpt lat="45.66263" lon="4.77547">
        <ele>259</ele>
        <time>2006-09-21T15:25:26Z</time>
      </trkpt>
      <trkpt lat="45.66341" lon="4.77491">
        <ele>261</ele>
        <time>2006-09-21T15:25:50Z</time>
      </trkpt>
      <trkpt lat="45.66392" lon="4.77463">
        <ele>264</ele>
        <time>2006-09-21T15:26:10Z</time>
      </trkpt>
      <trkpt lat="45.66414" lon="4.77459">
        <ele>266</ele>
        <time>2006-09-21T15:26:24Z</time>
      </trkpt>
      <trkpt lat="45.66416" lon="4.77459">
        <ele>265</ele>
        <time>2006-09-21T15:26:27Z</time>
      </trkpt>
      <trkpt lat="45.6645" lon="4.77459">
        <ele>267</ele>
        <time>2006-09-21T15:26:41Z</time>
      </trkpt>
      <trkpt lat="45.66506" lon="4.77465">
        <ele>267</ele>
        <time>2006-09-21T15:26:58Z</time>
      </trkpt>
      <trkpt lat="45.66594" lon="4.77438">
        <ele>269</ele>
        <time>2006-09-21T15:27:21Z</time>
      </trkpt>
      <trkpt lat="45.66633" lon="4.77423">
        <ele>269</ele>
        <time>2006-09-21T15:27:32Z</time>
      </trkpt>
      <trkpt lat="45.6663" lon="4.77403">
        <ele>270</ele>
        <time>2006-09-21T15:27:36Z</time>
      </trkpt>
      <trkpt lat="45.66598" lon="4.77285">
        <ele>270</ele>
        <time>2006-09-21T15:27:55Z</time>
      </trkpt>
      <trkpt lat="45.66568" lon="4.77165">
        <ele>273</ele>
        <time>2006-09-21T15:28:14Z</time>
      </trkpt>
      <trkpt lat="45.66551" lon="4.77107">
        <ele>273</ele>
        <time>2006-09-21T15:28:23Z</time>
      </trkpt>
      <trkpt lat="45.66564" lon="4.77088">
        <ele>273</ele>
        <time>2006-09-21T15:28:30Z</time>
      </trkpt>
      <trkpt lat="45.66579" lon="4.7709">
        <ele>273</ele>
        <time>2006-09-21T15:28:34Z</time>
      </trkpt>
      <trkpt lat="45.66618" lon="4.77086">
        <ele>273</ele>
        <time>2006-09-21T15:28:43Z</time>
      </trkpt>
      <trkpt lat="45.66613" lon="4.77064">
        <ele>273</ele>
        <time>2006-09-21T15:28:49Z</time>
      </trkpt>
      <trkpt lat="45.666" lon="4.76961">
        <ele>273</ele>
        <time>2006-09-21T15:29:03Z</time>
      </trkpt>
      <trkpt lat="45.66607" lon="4.76933">
        <ele>273</ele>
        <time>2006-09-21T15:29:07Z</time>
      </trkpt>
      <trkpt lat="45.66615" lon="4.76927">
        <ele>273</ele>
        <time>2006-09-21T15:29:09Z</time>
      </trkpt>
      <trkpt lat="45.66628" lon="4.7691">
        <ele>273</ele>
        <time>2006-09-21T15:29:13Z</time>
      </trkpt>
      <trkpt lat="45.6663" lon="4.7689">
        <ele>273</ele>
        <time>2006-09-21T15:29:16Z</time>
      </trkpt>
      <trkpt lat="45.66701" lon="4.76847">
        <ele>271</ele>
        <time>2006-09-21T15:29:31Z</time>
      </trkpt>
      <trkpt lat="45.66755" lon="4.76781">
        <ele>269</ele>
        <time>2006-09-21T15:29:45Z</time>
      </trkpt>
      <trkpt lat="45.66798" lon="4.76723">
        <ele>268</ele>
        <time>2006-09-21T15:29:59Z</time>
      </trkpt>
      <trkpt lat="45.66798" lon="4.76717">
        <ele>267</ele>
        <time>2006-09-21T15:30:01Z</time>
      </trkpt>
      <trkpt lat="45.66783" lon="4.76697">
        <ele>265</ele>
        <time>2006-09-21T15:30:13Z</time>
      </trkpt>
      <trkpt lat="45.66785" lon="4.76697">
        <ele>265</ele>
        <time>2006-09-21T15:30:14Z</time>
      </trkpt>
      <trkpt lat="45.66813" lon="4.76618">
        <ele>264</ele>
        <time>2006-09-21T15:30:48Z</time>
      </trkpt>
      <trkpt lat="45.66821" lon="4.76594">
        <ele>263</ele>
        <time>2006-09-21T15:31:00Z</time>
      </trkpt>
      <trkpt lat="45.66824" lon="4.76592">
        <ele>263</ele>
        <time>2006-09-21T15:31:01Z</time>
      </trkpt>
      <trkpt lat="45.66847" lon="4.76569">
        <ele>261</ele>
        <time>2006-09-21T15:31:20Z</time>
      </trkpt>
      <trkpt lat="45.66858" lon="4.76526">
        <ele>255</ele>
        <time>2006-09-21T15:31:37Z</time>
      </trkpt>
      <trkpt lat="45.66845" lon="4.76508">
        <ele>254</ele>
        <time>2006-09-21T15:31:40Z</time>
      </trkpt>
      <trkpt lat="45.66832" lon="4.76491">
        <ele>254</ele>
        <time>2006-09-21T15:31:43Z</time>
      </trkpt>
      <trkpt lat="45.66757" lon="4.76395">
        <ele>252</ele>
        <time>2006-09-21T15:32:01Z</time>
      </trkpt>
      <trkpt lat="45.66628" lon="4.7626">
        <ele>246</ele>
        <time>2006-09-21T15:32:29Z</time>
      </trkpt>
      <trkpt lat="45.66598" lon="4.76238">
        <ele>243</ele>
        <time>2006-09-21T15:32:35Z</time>
      </trkpt>
      <trkpt lat="45.66577" lon="4.76232">
        <ele>242</ele>
        <time>2006-09-21T15:32:39Z</time>
      </trkpt>
      <trkpt lat="45.66566" lon="4.76234">
        <ele>240</ele>
        <time>2006-09-21T15:32:42Z</time>
      </trkpt>
      <trkpt lat="45.6656" lon="4.76212">
        <ele>238</ele>
        <time>2006-09-21T15:32:51Z</time>
      </trkpt>
      <trkpt lat="45.66555" lon="4.76212">
        <ele>238</ele>
        <time>2006-09-21T15:32:58Z</time>
      </trkpt>
      <trkpt lat="45.66553" lon="4.76199">
        <ele>236</ele>
        <time>2006-09-21T15:33:09Z</time>
      </trkpt>
      <trkpt lat="45.66536" lon="4.76178">
        <ele>232</ele>
        <time>2006-09-21T15:33:17Z</time>
      </trkpt>
      <trkpt lat="45.66459" lon="4.76129">
        <ele>226</ele>
        <time>2006-09-21T15:33:33Z</time>
      </trkpt>
      <trkpt lat="45.66444" lon="4.76118">
        <ele>226</ele>
        <time>2006-09-21T15:33:36Z</time>
      </trkpt>
      <trkpt lat="45.66401" lon="4.76077">
        <ele>223</ele>
        <time>2006-09-21T15:33:46Z</time>
      </trkpt>
      <trkpt lat="45.66377" lon="4.76069">
        <ele>220</ele>
        <time>2006-09-21T15:33:58Z</time>
      </trkpt>
      <trkpt lat="45.66373" lon="4.76066">
        <ele>220</ele>
        <time>2006-09-21T15:34:01Z</time>
      </trkpt>
      <trkpt lat="45.66364" lon="4.76011">
        <ele>215</ele>
        <time>2006-09-21T15:34:21Z</time>
      </trkpt>
      <trkpt lat="45.66362" lon="4.76002">
        <ele>215</ele>
        <time>2006-09-21T15:34:23Z</time>
      </trkpt>
      <trkpt lat="45.6633" lon="4.7591">
        <ele>214</ele>
        <time>2006-09-21T15:34:46Z</time>
      </trkpt>
      <trkpt lat="45.66315" lon="4.75882">
        <ele>213</ele>
        <time>2006-09-21T15:34:53Z</time>
      </trkpt>
      <trkpt lat="45.66259" lon="4.75882">
        <ele>212</ele>
        <time>2006-09-21T15:35:07Z</time>
      </trkpt>
      <trkpt lat="45.66203" lon="4.75863">
        <ele>211</ele>
        <time>2006-09-21T15:35:20Z</time>
      </trkpt>
      <trkpt lat="45.661" lon="4.75888">
        <ele>209</ele>
        <time>2006-09-21T15:35:44Z</time>
      </trkpt>
      <trkpt lat="45.66015" lon="4.75925">
        <ele>206</ele>
        <time>2006-09-21T15:36:03Z</time>
      </trkpt>
      <trkpt lat="45.6601" lon="4.75925">
        <ele>206</ele>
        <time>2006-09-21T15:36:04Z</time>
      </trkpt>
      <trkpt lat="45.65927" lon="4.75929">
        <ele>204</ele>
        <time>2006-09-21T15:36:20Z</time>
      </trkpt>
      <trkpt lat="45.6586" lon="4.75961">
        <ele>204</ele>
        <time>2006-09-21T15:36:38Z</time>
      </trkpt>
      <trkpt lat="45.65828" lon="4.75976">
        <ele>203</ele>
        <time>2006-09-21T15:36:50Z</time>
      </trkpt>
      <trkpt lat="45.65817" lon="4.75972">
        <ele>203</ele>
        <time>2006-09-21T15:36:56Z</time>
      </trkpt>
      <trkpt lat="45.65834" lon="4.75981">
        <ele>203</ele>
        <time>2006-09-21T15:37:05Z</time>
      </trkpt>
      <trkpt lat="45.65871" lon="4.75955">
        <ele>203</ele>
        <time>2006-09-21T15:37:17Z</time>
      </trkpt>
      <trkpt lat="45.65877" lon="4.75953">
        <ele>203</ele>
        <time>2006-09-21T15:37:20Z</time>
      </trkpt>
      <trkpt lat="45.65877" lon="4.75951">
        <ele>203</ele>
        <time>2006-09-21T15:37:23Z</time>
      </trkpt>
      <trkpt lat="45.65871" lon="4.75955">
        <ele>203</ele>
        <time>2006-09-21T15:37:27Z</time>
      </trkpt>
      <trkpt lat="45.65864" lon="4.75961">
        <ele>202</ele>
        <time>2006-09-21T15:37:29Z</time>
      </trkpt>
      <trkpt lat="45.65819" lon="4.75976">
        <ele>202</ele>
        <time>2006-09-21T15:37:42Z</time>
      </trkpt>
      <trkpt lat="45.65766" lon="4.75966">
        <ele>201</ele>
        <time>2006-09-21T15:37:58Z</time>
      </trkpt>
      <trkpt lat="45.65701" lon="4.75944">
        <ele>201</ele>
        <time>2006-09-21T15:38:15Z</time>
      </trkpt>
      <trkpt lat="45.65693" lon="4.75944">
        <ele>201</ele>
        <time>2006-09-21T15:38:17Z</time>
      </trkpt>
      <trkpt lat="45.65684" lon="4.75966">
        <ele>201</ele>
        <time>2006-09-21T15:38:22Z</time>
      </trkpt>
      <trkpt lat="45.65686" lon="4.75983">
        <ele>201</ele>
        <time>2006-09-21T15:38:25Z</time>
      </trkpt>
      <trkpt lat="45.65676" lon="4.76008">
        <ele>201</ele>
        <time>2006-09-21T15:38:31Z</time>
      </trkpt>
      <trkpt lat="45.6565" lon="4.76034">
        <ele>199</ele>
        <time>2006-09-21T15:38:40Z</time>
      </trkpt>
      <trkpt lat="45.65583" lon="4.76088">
        <ele>199</ele>
        <time>2006-09-21T15:38:55Z</time>
      </trkpt>
      <trkpt lat="45.65545" lon="4.76103">
        <ele>200</ele>
        <time>2006-09-21T15:39:03Z</time>
      </trkpt>
      <trkpt lat="45.65487" lon="4.76064">
        <ele>201</ele>
        <time>2006-09-21T15:39:16Z</time>
      </trkpt>
      <trkpt lat="45.65379" lon="4.75966">
        <ele>202</ele>
        <time>2006-09-21T15:39:39Z</time>
      </trkpt>
      <trkpt lat="45.65306" lon="4.75905">
        <ele>202</ele>
        <time>2006-09-21T15:39:55Z</time>
      </trkpt>
      <trkpt lat="45.65206" lon="4.75869">
        <ele>202</ele>
        <time>2006-09-21T15:40:15Z</time>
      </trkpt>
      <trkpt lat="45.65195" lon="4.75867">
        <ele>202</ele>
        <time>2006-09-21T15:40:17Z</time>
      </trkpt>
      <trkpt lat="45.65184" lon="4.75893">
        <ele>203</ele>
        <time>2006-09-21T15:40:23Z</time>
      </trkpt>
      <trkpt lat="45.65182" lon="4.75957">
        <ele>203</ele>
        <time>2006-09-21T15:40:33Z</time>
      </trkpt>
      <trkpt lat="45.65167" lon="4.75974">
        <ele>202</ele>
        <time>2006-09-21T15:40:39Z</time>
      </trkpt>
      <trkpt lat="45.65088" lon="4.75933">
        <ele>202</ele>
        <time>2006-09-21T15:40:56Z</time>
      </trkpt>
      <trkpt lat="45.64974" lon="4.75865">
        <ele>202</ele>
        <time>2006-09-21T15:41:19Z</time>
      </trkpt>
      <trkpt lat="45.6497" lon="4.75863">
        <ele>202</ele>
        <time>2006-09-21T15:41:20Z</time>
      </trkpt>
      <trkpt lat="45.6492" lon="4.75817">
        <ele>202</ele>
        <time>2006-09-21T15:41:31Z</time>
      </trkpt>
      <trkpt lat="45.64824" lon="4.75749">
        <ele>202</ele>
        <time>2006-09-21T15:41:50Z</time>
      </trkpt>
      <trkpt lat="45.64727" lon="4.75672">
        <ele>203</ele>
        <time>2006-09-21T15:42:09Z</time>
      </trkpt>
      <trkpt lat="45.64691" lon="4.75627">
        <ele>203</ele>
        <time>2006-09-21T15:42:19Z</time>
      </trkpt>
      <trkpt lat="45.64678" lon="4.75631">
        <ele>203</ele>
        <time>2006-09-21T15:42:23Z</time>
      </trkpt>
      <trkpt lat="45.64658" lon="4.75667">
        <ele>202</ele>
        <time>2006-09-21T15:42:30Z</time>
      </trkpt>
      <trkpt lat="45.64643" lon="4.75678">
        <ele>202</ele>
        <time>2006-09-21T15:42:34Z</time>
      </trkpt>
      <trkpt lat="45.64581" lon="4.75678">
        <ele>202</ele>
        <time>2006-09-21T15:42:48Z</time>
      </trkpt>
      <trkpt lat="45.64566" lon="4.7568">
        <ele>202</ele>
        <time>2006-09-21T15:42:51Z</time>
      </trkpt>
      <trkpt lat="45.64547" lon="4.75678">
        <ele>202</ele>
        <time>2006-09-21T15:42:55Z</time>
      </trkpt>
      <trkpt lat="45.64448" lon="4.75642">
        <ele>202</ele>
        <time>2006-09-21T15:43:15Z</time>
      </trkpt>
      <trkpt lat="45.64369" lon="4.75611">
        <ele>202</ele>
        <time>2006-09-21T15:43:31Z</time>
      </trkpt>
      <trkpt lat="45.64349" lon="4.75603">
        <ele>202</ele>
        <time>2006-09-21T15:43:35Z</time>
      </trkpt>
      <trkpt lat="45.64261" lon="4.75607">
        <ele>203</ele>
        <time>2006-09-21T15:43:51Z</time>
      </trkpt>
      <trkpt lat="45.64171" lon="4.75605">
        <ele>199</ele>
        <time>2006-09-21T15:44:05Z</time>
      </trkpt>
      <trkpt lat="45.64135" lon="4.75592">
        <ele>197</ele>
        <time>2006-09-21T15:44:15Z</time>
      </trkpt>
      <trkpt lat="45.64133" lon="4.75588">
        <ele>196</ele>
        <time>2006-09-21T15:44:24Z</time>
      </trkpt>
      <trkpt lat="45.64118" lon="4.75577">
        <ele>195</ele>
        <time>2006-09-21T15:44:31Z</time>
      </trkpt>
      <trkpt lat="45.64107" lon="4.75603">
        <ele>194</ele>
        <time>2006-09-21T15:44:38Z</time>
      </trkpt>
      <trkpt lat="45.64073" lon="4.75706">
        <ele>193</ele>
        <time>2006-09-21T15:44:54Z</time>
      </trkpt>
      <trkpt lat="45.64073" lon="4.75721">
        <ele>193</ele>
        <time>2006-09-21T15:44:56Z</time>
      </trkpt>
      <trkpt lat="45.64073" lon="4.75736">
        <ele>193</ele>
        <time>2006-09-21T15:44:58Z</time>
      </trkpt>
      <trkpt lat="45.64073" lon="4.7579">
        <ele>191</ele>
        <time>2006-09-21T15:45:06Z</time>
      </trkpt>
      <trkpt lat="45.64064" lon="4.7589">
        <ele>190</ele>
        <time>2006-09-21T15:45:22Z</time>
      </trkpt>
      <trkpt lat="45.64066" lon="4.7594">
        <ele>190</ele>
        <time>2006-09-21T15:45:30Z</time>
      </trkpt>
      <trkpt lat="45.64086" lon="4.75957">
        <ele>192</ele>
        <time>2006-09-21T15:45:37Z</time>
      </trkpt>
      <trkpt lat="45.64146" lon="4.75959">
        <ele>197</ele>
        <time>2006-09-21T15:45:55Z</time>
      </trkpt>
      <trkpt lat="45.64216" lon="4.75998">
        <ele>199</ele>
        <time>2006-09-21T15:46:17Z</time>
      </trkpt>
      <trkpt lat="45.64244" lon="4.76058">
        <ele>201</ele>
        <time>2006-09-21T15:46:32Z</time>
      </trkpt>
      <trkpt lat="45.64251" lon="4.76161">
        <ele>205</ele>
        <time>2006-09-21T15:46:53Z</time>
      </trkpt>
      <trkpt lat="45.64253" lon="4.76302">
        <ele>206</ele>
        <time>2006-09-21T15:47:14Z</time>
      </trkpt>
      <trkpt lat="45.64253" lon="4.7636">
        <ele>206</ele>
        <time>2006-09-21T15:47:22Z</time>
      </trkpt>
      <trkpt lat="45.6424" lon="4.76433">
        <ele>206</ele>
        <time>2006-09-21T15:47:32Z</time>
      </trkpt>
      <trkpt lat="45.64182" lon="4.76569">
        <ele>206</ele>
        <time>2006-09-21T15:47:51Z</time>
      </trkpt>
      <trkpt lat="45.64171" lon="4.76586">
        <ele>206</ele>
        <time>2006-09-21T15:47:54Z</time>
      </trkpt>
      <trkpt lat="45.64158" lon="4.7662">
        <ele>206</ele>
        <time>2006-09-21T15:47:59Z</time>
      </trkpt>
      <trkpt lat="45.64154" lon="4.76755">
        <ele>206</ele>
        <time>2006-09-21T15:48:18Z</time>
      </trkpt>
      <trkpt lat="45.64137" lon="4.7677">
        <ele>206</ele>
        <time>2006-09-21T15:48:22Z</time>
      </trkpt>
      <trkpt lat="45.6403" lon="4.76781">
        <ele>204</ele>
        <time>2006-09-21T15:48:40Z</time>
      </trkpt>
      <trkpt lat="45.6392" lon="4.76817">
        <ele>204</ele>
        <time>2006-09-21T15:48:58Z</time>
      </trkpt>
      <trkpt lat="45.63824" lon="4.76852">
        <ele>204</ele>
        <time>2006-09-21T15:49:17Z</time>
      </trkpt>
      <trkpt lat="45.63736" lon="4.76873">
        <ele>203</ele>
        <time>2006-09-21T15:49:35Z</time>
      </trkpt>
      <trkpt lat="45.63674" lon="4.76886">
        <ele>203</ele>
        <time>2006-09-21T15:49:47Z</time>
      </trkpt>
      <trkpt lat="45.63665" lon="4.76903">
        <ele>203</ele>
        <time>2006-09-21T15:49:51Z</time>
      </trkpt>
      <trkpt lat="45.63684" lon="4.77008">
        <ele>204</ele>
        <time>2006-09-21T15:50:13Z</time>
      </trkpt>
      <trkpt lat="45.63712" lon="4.77047">
        <ele>207</ele>
        <time>2006-09-21T15:50:31Z</time>
      </trkpt>
      <trkpt lat="45.63727" lon="4.77107">
        <ele>208</ele>
        <time>2006-09-21T15:50:55Z</time>
      </trkpt>
      <trkpt lat="45.63736" lon="4.77135">
        <ele>212</ele>
        <time>2006-09-21T15:51:11Z</time>
      </trkpt>
      <trkpt lat="45.63742" lon="4.77171">
        <ele>217</ele>
        <time>2006-09-21T15:51:31Z</time>
      </trkpt>
      <trkpt lat="45.63736" lon="4.77169">
        <ele>218</ele>
        <time>2006-09-21T15:51:35Z</time>
      </trkpt>
      <trkpt lat="45.63704" lon="4.7715">
        <ele>226</ele>
        <time>2006-09-21T15:51:58Z</time>
      </trkpt>
      <trkpt lat="45.63663" lon="4.77161">
        <ele>235</ele>
        <time>2006-09-21T15:52:26Z</time>
      </trkpt>
      <trkpt lat="45.63618" lon="4.77225">
        <ele>242</ele>
        <time>2006-09-21T15:53:12Z</time>
      </trkpt>
      <trkpt lat="45.63609" lon="4.77277">
        <ele>247</ele>
        <time>2006-09-21T15:53:37Z</time>
      </trkpt>
      <trkpt lat="45.63605" lon="4.77335">
        <ele>252</ele>
        <time>2006-09-21T15:54:01Z</time>
      </trkpt>
      <trkpt lat="45.63603" lon="4.77397">
        <ele>255</ele>
        <time>2006-09-21T15:54:16Z</time>
      </trkpt>
      <trkpt lat="45.63613" lon="4.7744">
        <ele>259</ele>
        <time>2006-09-21T15:54:28Z</time>
      </trkpt>
      <trkpt lat="45.6368" lon="4.77431">
        <ele>262</ele>
        <time>2006-09-21T15:54:47Z</time>
      </trkpt>
      <trkpt lat="45.63783" lon="4.77423">
        <ele>265</ele>
        <time>2006-09-21T15:55:12Z</time>
      </trkpt>
      <trkpt lat="45.63813" lon="4.77423">
        <ele>266</ele>
        <time>2006-09-21T15:55:19Z</time>
      </trkpt>
      <trkpt lat="45.63809" lon="4.7745">
        <ele>267</ele>
        <time>2006-09-21T15:55:26Z</time>
      </trkpt>
      <trkpt lat="45.63781" lon="4.77543">
        <ele>271</ele>
        <time>2006-09-21T15:55:48Z</time>
      </trkpt>
      <trkpt lat="45.63787" lon="4.7762">
        <ele>274</ele>
        <time>2006-09-21T15:56:08Z</time>
      </trkpt>
      <trkpt lat="45.63802" lon="4.77691">
        <ele>278</ele>
        <time>2006-09-21T15:56:27Z</time>
      </trkpt>
      <trkpt lat="45.63804" lon="4.77695">
        <ele>278</ele>
        <time>2006-09-21T15:56:28Z</time>
      </trkpt>
      <trkpt lat="45.63847" lon="4.77654">
        <ele>279</ele>
        <time>2006-09-21T15:56:41Z</time>
      </trkpt>
      <trkpt lat="45.63895" lon="4.77613">
        <ele>279</ele>
        <time>2006-09-21T15:56:52Z</time>
      </trkpt>
      <trkpt lat="45.6397" lon="4.77577">
        <ele>281</ele>
        <time>2006-09-21T15:57:05Z</time>
      </trkpt>
      <trkpt lat="45.64034" lon="4.77463">
        <ele>282</ele>
        <time>2006-09-21T15:57:21Z</time>
      </trkpt>
      <trkpt lat="45.64096" lon="4.77382">
        <ele>280</ele>
        <time>2006-09-21T15:57:33Z</time>
      </trkpt>
      <trkpt lat="45.64184" lon="4.77279">
        <ele>273</ele>
        <time>2006-09-21T15:57:46Z</time>
      </trkpt>
      <trkpt lat="45.64201" lon="4.77257">
        <ele>272</ele>
        <time>2006-09-21T15:57:48Z</time>
      </trkpt>
      <trkpt lat="45.64246" lon="4.77223">
        <ele>269</ele>
        <time>2006-09-21T15:57:53Z</time>
      </trkpt>
      <trkpt lat="45.6427" lon="4.77212">
        <ele>268</ele>
        <time>2006-09-21T15:57:55Z</time>
      </trkpt>
      <trkpt lat="45.64313" lon="4.77176">
        <ele>265</ele>
        <time>2006-09-21T15:57:59Z</time>
      </trkpt>
      <trkpt lat="45.64401" lon="4.77058">
        <ele>256</ele>
        <time>2006-09-21T15:58:10Z</time>
      </trkpt>
      <trkpt lat="45.64435" lon="4.77017">
        <ele>252</ele>
        <time>2006-09-21T15:58:17Z</time>
      </trkpt>
      <trkpt lat="45.64437" lon="4.77">
        <ele>252</ele>
        <time>2006-09-21T15:58:21Z</time>
      </trkpt>
      <trkpt lat="45.64431" lon="4.76974">
        <ele>251</ele>
        <time>2006-09-21T15:58:34Z</time>
      </trkpt>
      <trkpt lat="45.64412" lon="4.7694">
        <ele>251</ele>
        <time>2006-09-21T15:58:48Z</time>
      </trkpt>
      <trkpt lat="45.64362" lon="4.76871">
        <ele>245</ele>
        <time>2006-09-21T15:59:11Z</time>
      </trkpt>
      <trkpt lat="45.64315" lon="4.76824">
        <ele>242</ele>
        <time>2006-09-21T15:59:27Z</time>
      </trkpt>
      <trkpt lat="45.64296" lon="4.76777">
        <ele>240</ele>
        <time>2006-09-21T15:59:33Z</time>
      </trkpt>
      <trkpt lat="45.64227" lon="4.76665">
        <ele>238</ele>
        <time>2006-09-21T15:59:47Z</time>
      </trkpt>
      <trkpt lat="45.64229" lon="4.76652">
        <ele>237</ele>
        <time>2006-09-21T15:59:53Z</time>
      </trkpt>
      <trkpt lat="45.64294" lon="4.76639">
        <ele>233</ele>
        <time>2006-09-21T16:00:07Z</time>
      </trkpt>
      <trkpt lat="45.64386" lon="4.76611">
        <ele>231</ele>
        <time>2006-09-21T16:00:22Z</time>
      </trkpt>
      <trkpt lat="45.64412" lon="4.76607">
        <ele>231</ele>
        <time>2006-09-21T16:00:26Z</time>
      </trkpt>
      <trkpt lat="45.64431" lon="4.76571">
        <ele>230</ele>
        <time>2006-09-21T16:00:32Z</time>
      </trkpt>
      <trkpt lat="45.64442" lon="4.76566">
        <ele>230</ele>
        <time>2006-09-21T16:00:34Z</time>
      </trkpt>
      <trkpt lat="45.64577" lon="4.7653">
        <ele>228</ele>
        <time>2006-09-21T16:00:56Z</time>
      </trkpt>
      <trkpt lat="45.64643" lon="4.76534">
        <ele>226</ele>
        <time>2006-09-21T16:01:09Z</time>
      </trkpt>
      <trkpt lat="45.64654" lon="4.76536">
        <ele>225</ele>
        <time>2006-09-21T16:01:22Z</time>
      </trkpt>
      <trkpt lat="45.64656" lon="4.76536">
        <ele>225</ele>
        <time>2006-09-21T16:01:23Z</time>
      </trkpt>
      <trkpt lat="45.64729" lon="4.76556">
        <ele>226</ele>
        <time>2006-09-21T16:01:37Z</time>
      </trkpt>
      <trkpt lat="45.64824" lon="4.76517">
        <ele>222</ele>
        <time>2006-09-21T16:01:50Z</time>
      </trkpt>
      <trkpt lat="45.64772" lon="4.76493">
        <ele>209</ele>
        <time>2006-09-21T16:03:31Z</time>
      </trkpt>
      <trkpt lat="45.64714" lon="4.76511">
        <ele>211</ele>
        <time>2006-09-21T16:03:55Z</time>
      </trkpt>
      <trkpt lat="45.64665" lon="4.76504">
        <ele>212</ele>
        <time>2006-09-21T16:04:10Z</time>
      </trkpt>
      <trkpt lat="45.64585" lon="4.76493">
        <ele>212</ele>
        <time>2006-09-21T16:04:28Z</time>
      </trkpt>
      <trkpt lat="45.64566" lon="4.76493">
        <ele>212</ele>
        <time>2006-09-21T16:04:34Z</time>
      </trkpt>
      <trkpt lat="45.64562" lon="4.76498">
        <ele>212</ele>
        <time>2006-09-21T16:04:37Z</time>
      </trkpt>
      <trkpt lat="45.64564" lon="4.765">
        <ele>212</ele>
        <time>2006-09-21T16:04:40Z</time>
      </trkpt>
      <trkpt lat="45.64575" lon="4.76485">
        <ele>212</ele>
        <time>2006-09-21T16:04:44Z</time>
      </trkpt>
      <trkpt lat="45.64575" lon="4.76461">
        <ele>211</ele>
        <time>2006-09-21T16:04:48Z</time>
      </trkpt>
      <trkpt lat="45.64588" lon="4.76405">
        <ele>211</ele>
        <time>2006-09-21T16:04:58Z</time>
      </trkpt>
      <trkpt lat="45.6459" lon="4.7636">
        <ele>211</ele>
        <time>2006-09-21T16:05:06Z</time>
      </trkpt>
      <trkpt lat="45.64583" lon="4.76339">
        <ele>211</ele>
        <time>2006-09-21T16:05:10Z</time>
      </trkpt>
      <trkpt lat="45.64577" lon="4.76332">
        <ele>211</ele>
        <time>2006-09-21T16:05:12Z</time>
      </trkpt>
      <trkpt lat="45.64575" lon="4.76311">
        <ele>211</ele>
        <time>2006-09-21T16:05:16Z</time>
      </trkpt>
      <trkpt lat="45.64585" lon="4.76283">
        <ele>210</ele>
        <time>2006-09-21T16:05:21Z</time>
      </trkpt>
      <trkpt lat="45.64592" lon="4.76255">
        <ele>210</ele>
        <time>2006-09-21T16:05:25Z</time>
      </trkpt>
      <trkpt lat="45.64607" lon="4.76257">
        <ele>209</ele>
        <time>2006-09-21T16:05:29Z</time>
      </trkpt>
      <trkpt lat="45.64646" lon="4.76298">
        <ele>207</ele>
        <time>2006-09-21T16:05:41Z</time>
      </trkpt>
      <trkpt lat="45.64665" lon="4.76322">
        <ele>206</ele>
        <time>2006-09-21T16:05:53Z</time>
      </trkpt>
      <trkpt lat="45.6474" lon="4.76397">
        <ele>205</ele>
        <time>2006-09-21T16:06:09Z</time>
      </trkpt>
      <trkpt lat="45.64785" lon="4.76438">
        <ele>204</ele>
        <time>2006-09-21T16:06:22Z</time>
      </trkpt>
      <trkpt lat="45.64785" lon="4.76438">
        <ele>204</ele>
        <time>2006-09-21T16:06:25Z</time>
      </trkpt>
      <trkpt lat="45.64791" lon="4.76431">
        <ele>202</ele>
        <time>2006-09-21T16:06:31Z</time>
      </trkpt>
      <trkpt lat="45.64798" lon="4.76431">
        <ele>202</ele>
        <time>2006-09-21T16:06:36Z</time>
      </trkpt>
      <trkpt lat="45.64832" lon="4.76472">
        <ele>201</ele>
        <time>2006-09-21T16:06:47Z</time>
      </trkpt>
      <trkpt lat="45.64834" lon="4.7644">
        <ele>201</ele>
        <time>2006-09-21T16:06:53Z</time>
      </trkpt>
      <trkpt lat="45.64828" lon="4.76403">
        <ele>201</ele>
        <time>2006-09-21T16:07:00Z</time>
      </trkpt>
      <trkpt lat="45.64847" lon="4.76384">
        <ele>200</ele>
        <time>2006-09-21T16:07:07Z</time>
      </trkpt>
      <trkpt lat="45.64858" lon="4.76393">
        <ele>200</ele>
        <time>2006-09-21T16:07:11Z</time>
      </trkpt>
      <trkpt lat="45.64929" lon="4.76489">
        <ele>198</ele>
        <time>2006-09-21T16:07:34Z</time>
      </trkpt>
      <trkpt lat="45.64965" lon="4.76536">
        <ele>198</ele>
        <time>2006-09-21T16:07:45Z</time>
      </trkpt>
      <trkpt lat="45.64993" lon="4.76538">
        <ele>197</ele>
        <time>2006-09-21T16:07:52Z</time>
      </trkpt>
      <trkpt lat="45.65015" lon="4.7656">
        <ele>197</ele>
        <time>2006-09-21T16:07:58Z</time>
      </trkpt>
      <trkpt lat="45.65021" lon="4.76569">
        <ele>197</ele>
        <time>2006-09-21T16:08:00Z</time>
      </trkpt>
      <trkpt lat="45.65062" lon="4.76603">
        <ele>197</ele>
        <time>2006-09-21T16:08:10Z</time>
      </trkpt>
      <trkpt lat="45.6506" lon="4.7668">
        <ele>197</ele>
        <time>2006-09-21T16:08:26Z</time>
      </trkpt>
      <trkpt lat="45.65058" lon="4.76702">
        <ele>198</ele>
        <time>2006-09-21T16:08:30Z</time>
      </trkpt>
      <trkpt lat="45.6507" lon="4.76719">
        <ele>198</ele>
        <time>2006-09-21T16:08:35Z</time>
      </trkpt>
      <trkpt lat="45.65135" lon="4.76732">
        <ele>198</ele>
        <time>2006-09-21T16:08:53Z</time>
      </trkpt>
      <trkpt lat="45.65221" lon="4.76725">
        <ele>199</ele>
        <time>2006-09-21T16:09:11Z</time>
      </trkpt>
      <trkpt lat="45.65304" lon="4.76708">
        <ele>200</ele>
        <time>2006-09-21T16:09:26Z</time>
      </trkpt>
      <trkpt lat="45.65315" lon="4.76723">
        <ele>202</ele>
        <time>2006-09-21T16:09:33Z</time>
      </trkpt>
      <trkpt lat="45.65315" lon="4.76766">
        <ele>205</ele>
        <time>2006-09-21T16:09:50Z</time>
      </trkpt>
      <trkpt lat="45.65317" lon="4.76802">
        <ele>211</ele>
        <time>2006-09-21T16:10:09Z</time>
      </trkpt>
      <trkpt lat="45.65315" lon="4.76826">
        <ele>215</ele>
        <time>2006-09-21T16:10:24Z</time>
      </trkpt>
      <trkpt lat="45.65311" lon="4.7683">
        <ele>216</ele>
        <time>2006-09-21T16:10:28Z</time>
      </trkpt>
      <trkpt lat="45.65309" lon="4.76832">
        <ele>216</ele>
        <time>2006-09-21T16:10:30Z</time>
      </trkpt>
      <trkpt lat="45.65283" lon="4.76845">
        <ele>219</ele>
        <time>2006-09-21T16:10:50Z</time>
      </trkpt>
      <trkpt lat="45.65285" lon="4.76882">
        <ele>224</ele>
        <time>2006-09-21T16:11:09Z</time>
      </trkpt>
      <trkpt lat="45.65294" lon="4.76916">
        <ele>228</ele>
        <time>2006-09-21T16:11:27Z</time>
      </trkpt>
      <trkpt lat="45.65321" lon="4.76942">
        <ele>230</ele>
        <time>2006-09-21T16:11:48Z</time>
      </trkpt>
      <trkpt lat="45.65324" lon="4.76953">
        <ele>231</ele>
        <time>2006-09-21T16:11:52Z</time>
      </trkpt>
      <trkpt lat="45.65326" lon="4.77002">
        <ele>236</ele>
        <time>2006-09-21T16:12:15Z</time>
      </trkpt>
      <trkpt lat="45.65328" lon="4.77043">
        <ele>240</ele>
        <time>2006-09-21T16:12:33Z</time>
      </trkpt>
      <trkpt lat="45.6533" lon="4.77083">
        <ele>245</ele>
        <time>2006-09-21T16:12:52Z</time>
      </trkpt>
      <trkpt lat="45.65332" lon="4.77129">
        <ele>244</ele>
        <time>2006-09-21T16:13:05Z</time>
      </trkpt>
      <trkpt lat="45.65332" lon="4.77141">
        <ele>244</ele>
        <time>2006-09-21T16:13:07Z</time>
      </trkpt>
      <trkpt lat="45.65369" lon="4.77257">
        <ele>240</ele>
        <time>2006-09-21T16:13:19Z</time>
      </trkpt>
      <trkpt lat="45.65416" lon="4.77392">
        <ele>241</ele>
        <time>2006-09-21T16:13:35Z</time>
      </trkpt>
      <trkpt lat="45.65457" lon="4.7753">
        <ele>240</ele>
        <time>2006-09-21T16:13:52Z</time>
      </trkpt>
      <trkpt lat="45.65446" lon="4.77556">
        <ele>240</ele>
        <time>2006-09-21T16:13:57Z</time>
      </trkpt>
      <trkpt lat="45.65362" lon="4.77581">
        <ele>239</ele>
        <time>2006-09-21T16:14:12Z</time>
      </trkpt>
      <trkpt lat="45.65281" lon="4.77603">
        <ele>234</ele>
        <time>2006-09-21T16:14:24Z</time>
      </trkpt>
      <trkpt lat="45.65274" lon="4.77633">
        <ele>233</ele>
        <time>2006-09-21T16:14:29Z</time>
      </trkpt>
      <trkpt lat="45.65296" lon="4.77684">
        <ele>235</ele>
        <time>2006-09-21T16:14:37Z</time>
      </trkpt>
      <trkpt lat="45.65319" lon="4.77751">
        <ele>235</ele>
        <time>2006-09-21T16:14:47Z</time>
      </trkpt>
      <trkpt lat="45.65328" lon="4.77772">
        <ele>235</ele>
        <time>2006-09-21T16:14:50Z</time>
      </trkpt>
      <trkpt lat="45.65332" lon="4.77798">
        <ele>234</ele>
        <time>2006-09-21T16:14:54Z</time>
      </trkpt>
      <trkpt lat="45.65319" lon="4.77875">
        <ele>234</ele>
        <time>2006-09-21T16:15:08Z</time>
      </trkpt>
      <trkpt lat="45.65317" lon="4.7789">
        <ele>235</ele>
        <time>2006-09-21T16:15:11Z</time>
      </trkpt>
      <trkpt lat="45.65326" lon="4.77905">
        <ele>235</ele>
        <time>2006-09-21T16:15:16Z</time>
      </trkpt>
      <trkpt lat="45.65362" lon="4.77916">
        <ele>236</ele>
        <time>2006-09-21T16:15:25Z</time>
      </trkpt>
      <trkpt lat="45.65446" lon="4.77918">
        <ele>238</ele>
        <time>2006-09-21T16:15:43Z</time>
      </trkpt>
      <trkpt lat="45.65467" lon="4.77953">
        <ele>238</ele>
        <time>2006-09-21T16:15:52Z</time>
      </trkpt>
      <trkpt lat="45.65472" lon="4.77953">
        <ele>238</ele>
        <time>2006-09-21T16:15:53Z</time>
      </trkpt>
      <trkpt lat="45.65478" lon="4.77955">
        <ele>238</ele>
        <time>2006-09-21T16:15:55Z</time>
      </trkpt>
      <trkpt lat="45.65491" lon="4.77985">
        <ele>238</ele>
        <time>2006-09-21T16:16:03Z</time>
      </trkpt>
      <trkpt lat="45.65502" lon="4.78118">
        <ele>240</ele>
        <time>2006-09-21T16:16:29Z</time>
      </trkpt>
      <trkpt lat="45.65517" lon="4.78242">
        <ele>239</ele>
        <time>2006-09-21T16:16:48Z</time>
      </trkpt>
      <trkpt lat="45.65536" lon="4.78369">
        <ele>240</ele>
        <time>2006-09-21T16:17:08Z</time>
      </trkpt>
      <trkpt lat="45.65538" lon="4.78375">
        <ele>240</ele>
        <time>2006-09-21T16:17:09Z</time>
      </trkpt>
      <trkpt lat="45.65555" lon="4.7838">
        <ele>242</ele>
        <time>2006-09-21T16:17:14Z</time>
      </trkpt>
      <trkpt lat="45.65615" lon="4.78289">
        <ele>245</ele>
        <time>2006-09-21T16:17:33Z</time>
      </trkpt>
      <trkpt lat="45.65691" lon="4.7824">
        <ele>246</ele>
        <time>2006-09-21T16:17:48Z</time>
      </trkpt>
      <trkpt lat="45.65736" lon="4.78219">
        <ele>248</ele>
        <time>2006-09-21T16:17:57Z</time>
      </trkpt>
      <trkpt lat="45.65749" lon="4.78225">
        <ele>249</ele>
        <time>2006-09-21T16:18:02Z</time>
      </trkpt>
      <trkpt lat="45.65761" lon="4.78302">
        <ele>252</ele>
        <time>2006-09-21T16:18:25Z</time>
      </trkpt>
      <trkpt lat="45.65776" lon="4.78371">
        <ele>259</ele>
        <time>2006-09-21T16:18:51Z</time>
      </trkpt>
      <trkpt lat="45.65779" lon="4.78377">
        <ele>260</ele>
        <time>2006-09-21T16:18:54Z</time>
      </trkpt>
      <trkpt lat="45.65785" lon="4.78388">
        <ele>261</ele>
        <time>2006-09-21T16:19:00Z</time>
      </trkpt>
      <trkpt lat="45.658" lon="4.78431">
        <ele>265</ele>
        <time>2006-09-21T16:19:19Z</time>
      </trkpt>
      <trkpt lat="45.65813" lon="4.78476">
        <ele>270</ele>
        <time>2006-09-21T16:19:39Z</time>
      </trkpt>
      <trkpt lat="45.65828" lon="4.78521">
        <ele>275</ele>
        <time>2006-09-21T16:19:58Z</time>
      </trkpt>
      <trkpt lat="45.65839" lon="4.78553">
        <ele>277</ele>
        <time>2006-09-21T16:20:11Z</time>
      </trkpt>
      <trkpt lat="45.6583" lon="4.78577">
        <ele>278</ele>
        <time>2006-09-21T16:20:20Z</time>
      </trkpt>
      <trkpt lat="45.65854" lon="4.78622">
        <ele>282</ele>
        <time>2006-09-21T16:20:38Z</time>
      </trkpt>
      <trkpt lat="45.6586" lon="4.78628">
        <ele>282</ele>
        <time>2006-09-21T16:20:41Z</time>
      </trkpt>
      <trkpt lat="45.65907" lon="4.78609">
        <ele>282</ele>
        <time>2006-09-21T16:20:56Z</time>
      </trkpt>
      <trkpt lat="45.65989" lon="4.78579">
        <ele>282</ele>
        <time>2006-09-21T16:21:16Z</time>
      </trkpt>
      <trkpt lat="45.66" lon="4.7856">
        <ele>281</ele>
        <time>2006-09-21T16:21:20Z</time>
      </trkpt>
      <trkpt lat="45.66002" lon="4.78523">
        <ele>281</ele>
        <time>2006-09-21T16:21:26Z</time>
      </trkpt>
      <trkpt lat="45.66064" lon="4.78515">
        <ele>280</ele>
        <time>2006-09-21T16:21:36Z</time>
      </trkpt>
      <trkpt lat="45.6607" lon="4.78528">
        <ele>280</ele>
        <time>2006-09-21T16:21:40Z</time>
      </trkpt>
      <trkpt lat="45.66103" lon="4.78661">
        <ele>280</ele>
        <time>2006-09-21T16:21:59Z</time>
      </trkpt>
      <trkpt lat="45.66139" lon="4.78736">
        <ele>279</ele>
        <time>2006-09-21T16:22:10Z</time>
      </trkpt>
      <trkpt lat="45.66158" lon="4.78811">
        <ele>278</ele>
        <time>2006-09-21T16:22:19Z</time>
      </trkpt>
      <trkpt lat="45.66158" lon="4.78882">
        <ele>277</ele>
        <time>2006-09-21T16:22:28Z</time>
      </trkpt>
      <trkpt lat="45.66139" lon="4.78916">
        <ele>278</ele>
        <time>2006-09-21T16:22:35Z</time>
      </trkpt>
      <trkpt lat="45.66075" lon="4.78927">
        <ele>280</ele>
        <time>2006-09-21T16:22:54Z</time>
      </trkpt>
      <trkpt lat="45.66027" lon="4.78937">
        <ele>278</ele>
        <time>2006-09-21T16:23:06Z</time>
      </trkpt>
      <trkpt lat="45.65935" lon="4.78995">
        <ele>277</ele>
        <time>2006-09-21T16:23:28Z</time>
      </trkpt>
      <trkpt lat="45.65894" lon="4.79038">
        <ele>274</ele>
        <time>2006-09-21T16:23:42Z</time>
      </trkpt>
      <trkpt lat="45.6589" lon="4.79049">
        <ele>274</ele>
        <time>2006-09-21T16:23:44Z</time>
      </trkpt>
      <trkpt lat="45.65884" lon="4.79197">
        <ele>272</ele>
        <time>2006-09-21T16:24:02Z</time>
      </trkpt>
      <trkpt lat="45.65869" lon="4.79317">
        <ele>271</ele>
        <time>2006-09-21T16:24:17Z</time>
      </trkpt>
      <trkpt lat="45.65873" lon="4.7933">
        <ele>270</ele>
        <time>2006-09-21T16:24:21Z</time>
      </trkpt>
      <trkpt lat="45.65942" lon="4.79334">
        <ele>268</ele>
        <time>2006-09-21T16:24:34Z</time>
      </trkpt>
      <trkpt lat="45.66042" lon="4.79341">
        <ele>268</ele>
        <time>2006-09-21T16:24:50Z</time>
      </trkpt>
      <trkpt lat="45.66047" lon="4.79358">
        <ele>267</ele>
        <time>2006-09-21T16:24:54Z</time>
      </trkpt>
      <trkpt lat="45.66008" lon="4.79437">
        <ele>265</ele>
        <time>2006-09-21T16:25:06Z</time>
      </trkpt>
      <trkpt lat="45.65939" lon="4.79534">
        <ele>263</ele>
        <time>2006-09-21T16:25:21Z</time>
      </trkpt>
      <trkpt lat="45.65924" lon="4.79555">
        <ele>263</ele>
        <time>2006-09-21T16:25:25Z</time>
      </trkpt>
      <trkpt lat="45.65914" lon="4.79581">
        <ele>262</ele>
        <time>2006-09-21T16:25:29Z</time>
      </trkpt>
      <trkpt lat="45.65877" lon="4.79718">
        <ele>262</ele>
        <time>2006-09-21T16:25:48Z</time>
      </trkpt>
      <trkpt lat="45.65873" lon="4.79738">
        <ele>261</ele>
        <time>2006-09-21T16:25:51Z</time>
      </trkpt>
      <trkpt lat="45.65884" lon="4.79774">
        <ele>262</ele>
        <time>2006-09-21T16:25:57Z</time>
      </trkpt>
      <trkpt lat="45.65909" lon="4.79806">
        <ele>263</ele>
        <time>2006-09-21T16:26:04Z</time>
      </trkpt>
      <trkpt lat="45.66004" lon="4.79834">
        <ele>263</ele>
        <time>2006-09-21T16:26:21Z</time>
      </trkpt>
      <trkpt lat="45.66057" lon="4.79834">
        <ele>262</ele>
        <time>2006-09-21T16:26:30Z</time>
      </trkpt>
      <trkpt lat="45.66193" lon="4.79873">
        <ele>260</ele>
        <time>2006-09-21T16:26:50Z</time>
      </trkpt>
      <trkpt lat="45.66341" lon="4.79869">
        <ele>258</ele>
        <time>2006-09-21T16:27:10Z</time>
      </trkpt>
      <trkpt lat="45.66379" lon="4.79856">
        <ele>258</ele>
        <time>2006-09-21T16:27:19Z</time>
      </trkpt>
      <trkpt lat="45.66377" lon="4.79856">
        <ele>258</ele>
        <time>2006-09-21T16:27:21Z</time>
      </trkpt>
      <trkpt lat="45.66379" lon="4.79886">
        <ele>256</ele>
        <time>2006-09-21T16:27:30Z</time>
      </trkpt>
      <trkpt lat="45.66407" lon="4.80019">
        <ele>253</ele>
        <time>2006-09-21T16:27:48Z</time>
      </trkpt>
      <trkpt lat="45.66437" lon="4.80094">
        <ele>253</ele>
        <time>2006-09-21T16:28:01Z</time>
      </trkpt>
      <trkpt lat="45.66444" lon="4.80107">
        <ele>253</ele>
        <time>2006-09-21T16:28:03Z</time>
      </trkpt>
      <trkpt lat="45.66444" lon="4.80118">
        <ele>252</ele>
        <time>2006-09-21T16:28:05Z</time>
      </trkpt>
      <trkpt lat="45.66392" lon="4.80167">
        <ele>252</ele>
        <time>2006-09-21T16:28:19Z</time>
      </trkpt>
      <trkpt lat="45.6639" lon="4.80169">
        <ele>252</ele>
        <time>2006-09-21T16:28:20Z</time>
      </trkpt>
      <trkpt lat="45.66354" lon="4.80201">
        <ele>253</ele>
        <time>2006-09-21T16:28:30Z</time>
      </trkpt>
      <trkpt lat="45.6624" lon="4.80304">
        <ele>255</ele>
        <time>2006-09-21T16:28:56Z</time>
      </trkpt>
      <trkpt lat="45.66231" lon="4.80313">
        <ele>254</ele>
        <time>2006-09-21T16:28:58Z</time>
      </trkpt>
      <trkpt lat="45.66214" lon="4.80336">
        <ele>253</ele>
        <time>2006-09-21T16:29:04Z</time>
      </trkpt>
      <trkpt lat="45.66167" lon="4.80298">
        <ele>252</ele>
        <time>2006-09-21T16:29:16Z</time>
      </trkpt>
      <trkpt lat="45.66057" lon="4.80223">
        <ele>255</ele>
        <time>2006-09-21T16:29:39Z</time>
      </trkpt>
      <trkpt lat="45.66036" lon="4.80212">
        <ele>256</ele>
        <time>2006-09-21T16:29:45Z</time>
      </trkpt>
      <trkpt lat="45.66019" lon="4.8027">
        <ele>254</ele>
        <time>2006-09-21T16:29:54Z</time>
      </trkpt>
      <trkpt lat="45.66015" lon="4.80287">
        <ele>254</ele>
        <time>2006-09-21T16:29:56Z</time>
      </trkpt>
      <trkpt lat="45.6597" lon="4.8042">
        <ele>251</ele>
        <time>2006-09-21T16:30:11Z</time>
      </trkpt>
      <trkpt lat="45.65939" lon="4.8048">
        <ele>251</ele>
        <time>2006-09-21T16:30:19Z</time>
      </trkpt>
      <trkpt lat="45.6589" lon="4.8059">
        <ele>248</ele>
        <time>2006-09-21T16:30:33Z</time>
      </trkpt>
      <trkpt lat="45.65877" lon="4.80624">
        <ele>247</ele>
        <time>2006-09-21T16:30:37Z</time>
      </trkpt>
      <trkpt lat="45.65849" lon="4.80628">
        <ele>246</ele>
        <time>2006-09-21T16:30:43Z</time>
      </trkpt>
      <trkpt lat="45.65779" lon="4.80566">
        <ele>248</ele>
        <time>2006-09-21T16:31:03Z</time>
      </trkpt>
      <trkpt lat="45.65759" lon="4.80555">
        <ele>248</ele>
        <time>2006-09-21T16:31:07Z</time>
      </trkpt>
      <trkpt lat="45.65725" lon="4.8051">
        <ele>247</ele>
        <time>2006-09-21T16:31:16Z</time>
      </trkpt>
      <trkpt lat="45.65718" lon="4.80508">
        <ele>246</ele>
        <time>2006-09-21T16:31:17Z</time>
      </trkpt>
      <trkpt lat="45.6568" lon="4.805">
        <ele>245</ele>
        <time>2006-09-21T16:31:24Z</time>
      </trkpt>
      <trkpt lat="45.65669" lon="4.80482">
        <ele>245</ele>
        <time>2006-09-21T16:31:28Z</time>
      </trkpt>
      <trkpt lat="45.65678" lon="4.8039">
        <ele>244</ele>
        <time>2006-09-21T16:31:38Z</time>
      </trkpt>
      <trkpt lat="45.65658" lon="4.80345">
        <ele>244</ele>
        <time>2006-09-21T16:31:45Z</time>
      </trkpt>
      <trkpt lat="45.65654" lon="4.80341">
        <ele>244</ele>
        <time>2006-09-21T16:31:46Z</time>
      </trkpt>
      <trkpt lat="45.65652" lon="4.80306">
        <ele>243</ele>
        <time>2006-09-21T16:31:53Z</time>
      </trkpt>
      <trkpt lat="45.65652" lon="4.80302">
        <ele>243</ele>
        <time>2006-09-21T16:31:54Z</time>
      </trkpt>
      <trkpt lat="45.65646" lon="4.80264">
        <ele>243</ele>
        <time>2006-09-21T16:32:00Z</time>
      </trkpt>
      <trkpt lat="45.65564" lon="4.80201">
        <ele>241</ele>
        <time>2006-09-21T16:32:15Z</time>
      </trkpt>
      <trkpt lat="45.65543" lon="4.80182">
        <ele>241</ele>
        <time>2006-09-21T16:32:19Z</time>
      </trkpt>
      <trkpt lat="45.65485" lon="4.80077">
        <ele>241</ele>
        <time>2006-09-21T16:32:34Z</time>
      </trkpt>
      <trkpt lat="45.65457" lon="4.80023">
        <ele>242</ele>
        <time>2006-09-21T16:32:42Z</time>
      </trkpt>
      <trkpt lat="45.65444" lon="4.8003">
        <ele>242</ele>
        <time>2006-09-21T16:32:46Z</time>
      </trkpt>
      <trkpt lat="45.6542" lon="4.8015">
        <ele>241</ele>
        <time>2006-09-21T16:32:58Z</time>
      </trkpt>
      <trkpt lat="45.65407" lon="4.80233">
        <ele>245</ele>
        <time>2006-09-21T16:33:10Z</time>
      </trkpt>
      <trkpt lat="45.65384" lon="4.80326">
        <ele>249</ele>
        <time>2006-09-21T16:33:29Z</time>
      </trkpt>
      <trkpt lat="45.65343" lon="4.80394">
        <ele>250</ele>
        <time>2006-09-21T16:33:47Z</time>
      </trkpt>
      <trkpt lat="45.65334" lon="4.80461">
        <ele>248</ele>
        <time>2006-09-21T16:33:55Z</time>
      </trkpt>
      <trkpt lat="45.65341" lon="4.80622">
        <ele>241</ele>
        <time>2006-09-21T16:34:10Z</time>
      </trkpt>
      <trkpt lat="45.6533" lon="4.80706">
        <ele>237</ele>
        <time>2006-09-21T16:34:16Z</time>
      </trkpt>
      <trkpt lat="45.65354" lon="4.80776">
        <ele>235</ele>
        <time>2006-09-21T16:34:22Z</time>
      </trkpt>
      <trkpt lat="45.65362" lon="4.80783">
        <ele>235</ele>
        <time>2006-09-21T16:34:23Z</time>
      </trkpt>
      <trkpt lat="45.65416" lon="4.80854">
        <ele>235</ele>
        <time>2006-09-21T16:34:32Z</time>
      </trkpt>
      <trkpt lat="45.65446" lon="4.80864">
        <ele>234</ele>
        <time>2006-09-21T16:34:37Z</time>
      </trkpt>
      <trkpt lat="45.65467" lon="4.80851">
        <ele>234</ele>
        <time>2006-09-21T16:34:41Z</time>
      </trkpt>
      <trkpt lat="45.65493" lon="4.80856">
        <ele>234</ele>
        <time>2006-09-21T16:34:45Z</time>
      </trkpt>
      <trkpt lat="45.65665" lon="4.80912">
        <ele>235</ele>
        <time>2006-09-21T16:35:10Z</time>
      </trkpt>
      <trkpt lat="45.65733" lon="4.80935">
        <ele>236</ele>
        <time>2006-09-21T16:35:22Z</time>
      </trkpt>
      <trkpt lat="45.65742" lon="4.80935">
        <ele>236</ele>
        <time>2006-09-21T16:35:24Z</time>
      </trkpt>
      <trkpt lat="45.65755" lon="4.80935">
        <ele>236</ele>
        <time>2006-09-21T16:35:27Z</time>
      </trkpt>
      <trkpt lat="45.65809" lon="4.80952">
        <ele>235</ele>
        <time>2006-09-21T16:35:40Z</time>
      </trkpt>
      <trkpt lat="45.65815" lon="4.80954">
        <ele>235</ele>
        <time>2006-09-21T16:35:41Z</time>
      </trkpt>
      <trkpt lat="45.65847" lon="4.80961">
        <ele>234</ele>
        <time>2006-09-21T16:35:46Z</time>
      </trkpt>
      <trkpt lat="45.6586" lon="4.80963">
        <ele>234</ele>
        <time>2006-09-21T16:35:48Z</time>
      </trkpt>
      <trkpt lat="45.65882" lon="4.80959">
        <ele>234</ele>
        <time>2006-09-21T16:35:51Z</time>
      </trkpt>
      <trkpt lat="45.65903" lon="4.80959">
        <ele>233</ele>
        <time>2006-09-21T16:35:55Z</time>
      </trkpt>
      <trkpt lat="45.65991" lon="4.8098">
        <ele>234</ele>
        <time>2006-09-21T16:36:14Z</time>
      </trkpt>
      <trkpt lat="45.66094" lon="4.81">
        <ele>237</ele>
        <time>2006-09-21T16:36:39Z</time>
      </trkpt>
      <trkpt lat="45.6618" lon="4.81032">
        <ele>240</ele>
        <time>2006-09-21T16:37:00Z</time>
      </trkpt>
      <trkpt lat="45.66246" lon="4.81068">
        <ele>241</ele>
        <time>2006-09-21T16:37:16Z</time>
      </trkpt>
      <trkpt lat="45.66246" lon="4.81079">
        <ele>241</ele>
        <time>2006-09-21T16:37:21Z</time>
      </trkpt>
      <trkpt lat="45.66221" lon="4.81096">
        <ele>240</ele>
        <time>2006-09-21T16:37:27Z</time>
      </trkpt>
      <trkpt lat="45.6613" lon="4.81208">
        <ele>239</ele>
        <time>2006-09-21T16:37:44Z</time>
      </trkpt>
      <trkpt lat="45.66077" lon="4.81293">
        <ele>239</ele>
        <time>2006-09-21T16:37:59Z</time>
      </trkpt>
      <trkpt lat="45.66023" lon="4.81394">
        <ele>238</ele>
        <time>2006-09-21T16:38:16Z</time>
      </trkpt>
      <trkpt lat="45.6598" lon="4.81504">
        <ele>236</ele>
        <time>2006-09-21T16:38:27Z</time>
      </trkpt>
      <trkpt lat="45.65927" lon="4.81654">
        <ele>233</ele>
        <time>2006-09-21T16:38:43Z</time>
      </trkpt>
      <trkpt lat="45.6592" lon="4.81673">
        <ele>233</ele>
        <time>2006-09-21T16:38:51Z</time>
      </trkpt>
      <trkpt lat="45.65916" lon="4.8169">
        <ele>233</ele>
        <time>2006-09-21T16:39:00Z</time>
      </trkpt>
      <trkpt lat="45.65912" lon="4.81701">
        <ele>232</ele>
        <time>2006-09-21T16:39:02Z</time>
      </trkpt>
      <trkpt lat="45.65897" lon="4.81742">
        <ele>231</ele>
        <time>2006-09-21T16:39:08Z</time>
      </trkpt>
      <trkpt lat="45.65903" lon="4.81761">
        <ele>231</ele>
        <time>2006-09-21T16:39:12Z</time>
      </trkpt>
      <trkpt lat="45.65909" lon="4.81763">
        <ele>232</ele>
        <time>2006-09-21T16:39:14Z</time>
      </trkpt>
      <trkpt lat="45.65909" lon="4.81778">
        <ele>232</ele>
        <time>2006-09-21T16:39:18Z</time>
      </trkpt>
      <trkpt lat="45.65901" lon="4.81791">
        <ele>232</ele>
        <time>2006-09-21T16:39:21Z</time>
      </trkpt>
      <trkpt lat="45.65899" lon="4.81811">
        <ele>229</ele>
        <time>2006-09-21T16:39:26Z</time>
      </trkpt>
      <trkpt lat="45.65935" lon="4.81873">
        <ele>229</ele>
        <time>2006-09-21T16:39:42Z</time>
      </trkpt>
      <trkpt lat="45.65963" lon="4.81929">
        <ele>228</ele>
        <time>2006-09-21T16:39:52Z</time>
      </trkpt>
      <trkpt lat="45.65965" lon="4.81939">
        <ele>228</ele>
        <time>2006-09-21T16:39:56Z</time>
      </trkpt>
      <trkpt lat="45.65933" lon="4.8192">
        <ele>228</ele>
        <time>2006-09-21T16:40:06Z</time>
      </trkpt>
      <trkpt lat="45.65927" lon="4.81922">
        <ele>228</ele>
        <time>2006-09-21T16:40:08Z</time>
      </trkpt>
      <trkpt lat="45.65922" lon="4.81931">
        <ele>228</ele>
        <time>2006-09-21T16:40:12Z</time>
      </trkpt>
      <trkpt lat="45.65922" lon="4.81939">
        <ele>227</ele>
        <time>2006-09-21T16:40:14Z</time>
      </trkpt>
      <trkpt lat="45.65897" lon="4.81957">
        <ele>226</ele>
        <time>2006-09-21T16:40:20Z</time>
      </trkpt>
      <trkpt lat="45.65888" lon="4.81952">
        <ele>226</ele>
        <time>2006-09-21T16:40:22Z</time>
      </trkpt>
      <trkpt lat="45.65851" lon="4.81939">
        <ele>222</ele>
        <time>2006-09-21T16:40:34Z</time>
      </trkpt>
      <trkpt lat="45.65839" lon="4.81931">
        <ele>221</ele>
        <time>2006-09-21T16:40:37Z</time>
      </trkpt>
      <trkpt lat="45.65819" lon="4.81929">
        <ele>219</ele>
        <time>2006-09-21T16:40:41Z</time>
      </trkpt>
      <trkpt lat="45.65828" lon="4.81969">
        <ele>216</ele>
        <time>2006-09-21T16:40:45Z</time>
      </trkpt>
      <trkpt lat="45.65869" lon="4.82021">
        <ele>214</ele>
        <time>2006-09-21T16:40:51Z</time>
      </trkpt>
      <trkpt lat="45.65877" lon="4.82036">
        <ele>213</ele>
        <time>2006-09-21T16:40:53Z</time>
      </trkpt>
      <trkpt lat="45.65875" lon="4.82057">
        <ele>209</ele>
        <time>2006-09-21T16:41:00Z</time>
      </trkpt>
      <trkpt lat="45.65875" lon="4.82072">
        <ele>207</ele>
        <time>2006-09-21T16:41:09Z</time>
      </trkpt>
      <trkpt lat="45.65922" lon="4.82128">
        <ele>204</ele>
        <time>2006-09-21T16:41:21Z</time>
      </trkpt>
      <trkpt lat="45.65952" lon="4.82171">
        <ele>203</ele>
        <time>2006-09-21T16:41:27Z</time>
      </trkpt>
      <trkpt lat="45.66081" lon="4.82332">
        <ele>199</ele>
        <time>2006-09-21T16:41:49Z</time>
      </trkpt>
      <trkpt lat="45.66193" lon="4.82441">
        <ele>194</ele>
        <time>2006-09-21T16:42:05Z</time>
      </trkpt>
      <trkpt lat="45.66326" lon="4.82538">
        <ele>191</ele>
        <time>2006-09-21T16:42:24Z</time>
      </trkpt>
      <trkpt lat="45.66485" lon="4.8262">
        <ele>193</ele>
        <time>2006-09-21T16:42:46Z</time>
      </trkpt>
      <trkpt lat="45.66551" lon="4.82671">
        <ele>193</ele>
        <time>2006-09-21T16:42:59Z</time>
      </trkpt>
      <trkpt lat="45.66557" lon="4.82678">
        <ele>193</ele>
        <time>2006-09-21T16:43:01Z</time>
      </trkpt>
      <trkpt lat="45.66562" lon="4.82686">
        <ele>193</ele>
        <time>2006-09-21T16:43:04Z</time>
      </trkpt>
      <trkpt lat="45.6656" lon="4.8271">
        <ele>192</ele>
        <time>2006-09-21T16:43:08Z</time>
      </trkpt>
      <trkpt lat="45.66538" lon="4.82783">
        <ele>190</ele>
        <time>2006-09-21T16:43:15Z</time>
      </trkpt>
      <trkpt lat="45.66555" lon="4.82826">
        <ele>186</ele>
        <time>2006-09-21T16:43:21Z</time>
      </trkpt>
      <trkpt lat="45.66553" lon="4.82851">
        <ele>185</ele>
        <time>2006-09-21T16:43:27Z</time>
      </trkpt>
      <trkpt lat="45.66549" lon="4.82851">
        <ele>185</ele>
        <time>2006-09-21T16:43:28Z</time>
      </trkpt>
      <trkpt lat="45.66534" lon="4.82845">
        <ele>184</ele>
        <time>2006-09-21T16:43:31Z</time>
      </trkpt>
      <trkpt lat="45.665" lon="4.82843">
        <ele>183</ele>
        <time>2006-09-21T16:43:37Z</time>
      </trkpt>
      <trkpt lat="45.66474" lon="4.82834">
        <ele>182</ele>
        <time>2006-09-21T16:43:41Z</time>
      </trkpt>
      <trkpt lat="45.66463" lon="4.82823">
        <ele>182</ele>
        <time>2006-09-21T16:43:43Z</time>
      </trkpt>
      <trkpt lat="45.66371" lon="4.82768">
        <ele>180</ele>
        <time>2006-09-21T16:44:00Z</time>
      </trkpt>
      <trkpt lat="45.66351" lon="4.82765">
        <ele>179</ele>
        <time>2006-09-21T16:44:03Z</time>
      </trkpt>
      <trkpt lat="45.66328" lon="4.82763">
        <ele>178</ele>
        <time>2006-09-21T16:44:07Z</time>
      </trkpt>
      <trkpt lat="45.66298" lon="4.82763">
        <ele>176</ele>
        <time>2006-09-21T16:44:12Z</time>
      </trkpt>
      <trkpt lat="45.66287" lon="4.82776">
        <ele>176</ele>
        <time>2006-09-21T16:44:14Z</time>
      </trkpt>
      <trkpt lat="45.66246" lon="4.82781">
        <ele>173</ele>
        <time>2006-09-21T16:44:21Z</time>
      </trkpt>
      <trkpt lat="45.66199" lon="4.82778">
        <ele>172</ele>
        <time>2006-09-21T16:44:29Z</time>
      </trkpt>
      <trkpt lat="45.66184" lon="4.82776">
        <ele>171</ele>
        <time>2006-09-21T16:44:37Z</time>
      </trkpt>
      <trkpt lat="45.66163" lon="4.82772">
        <ele>170</ele>
        <time>2006-09-21T16:44:45Z</time>
      </trkpt>
      <trkpt lat="45.66092" lon="4.82733">
        <ele>169</ele>
        <time>2006-09-21T16:44:59Z</time>
      </trkpt>
      <trkpt lat="45.65978" lon="4.8269">
        <ele>168</ele>
        <time>2006-09-21T16:45:19Z</time>
      </trkpt>
      <trkpt lat="45.65854" lon="4.82643">
        <ele>167</ele>
        <time>2006-09-21T16:45:41Z</time>
      </trkpt>
      <trkpt lat="45.65738" lon="4.82577">
        <ele>167</ele>
        <time>2006-09-21T16:46:02Z</time>
      </trkpt>
      <trkpt lat="45.65714" lon="4.82568">
        <ele>166</ele>
        <time>2006-09-21T16:46:06Z</time>
      </trkpt>
      <trkpt lat="45.65624" lon="4.82493">
        <ele>166</ele>
        <time>2006-09-21T16:46:23Z</time>
      </trkpt>
      <trkpt lat="45.6553" lon="4.82392">
        <ele>165</ele>
        <time>2006-09-21T16:46:42Z</time>
      </trkpt>
      <trkpt lat="45.65525" lon="4.82386">
        <ele>165</ele>
        <time>2006-09-21T16:46:43Z</time>
      </trkpt>
      <trkpt lat="45.65487" lon="4.82341">
        <ele>165</ele>
        <time>2006-09-21T16:46:59Z</time>
      </trkpt>
      <trkpt lat="45.65485" lon="4.82338">
        <ele>165</ele>
        <time>2006-09-21T16:47:08Z</time>
      </trkpt>
      <trkpt lat="45.65437" lon="4.82274">
        <ele>160</ele>
        <time>2006-09-21T16:47:48Z</time>
      </trkpt>
      <trkpt lat="45.6536" lon="4.8221">
        <ele>160</ele>
        <time>2006-09-21T16:48:12Z</time>
      </trkpt>
      <trkpt lat="45.65306" lon="4.82128">
        <ele>159</ele>
        <time>2006-09-21T16:48:30Z</time>
      </trkpt>
      <trkpt lat="45.65266" lon="4.82171">
        <ele>159</ele>
        <time>2006-09-21T16:48:45Z</time>
      </trkpt>
      <trkpt lat="45.65197" lon="4.82278">
        <ele>159</ele>
        <time>2006-09-21T16:49:05Z</time>
      </trkpt>
      <trkpt lat="45.65186" lon="4.82298">
        <ele>159</ele>
        <time>2006-09-21T16:49:08Z</time>
      </trkpt>
      <trkpt lat="45.6518" lon="4.82371">
        <ele>159</ele>
        <time>2006-09-21T16:49:17Z</time>
      </trkpt>
      <trkpt lat="45.6518" lon="4.82388">
        <ele>159</ele>
        <time>2006-09-21T16:49:19Z</time>
      </trkpt>
      <trkpt lat="45.65152" lon="4.82401">
        <ele>160</ele>
        <time>2006-09-21T16:49:27Z</time>
      </trkpt>
      <trkpt lat="45.65148" lon="4.82399">
        <ele>160</ele>
        <time>2006-09-21T16:49:29Z</time>
      </trkpt>
      <trkpt lat="45.65139" lon="4.82401">
        <ele>159</ele>
        <time>2006-09-21T16:49:32Z</time>
      </trkpt>
      <trkpt lat="45.65135" lon="4.82411">
        <ele>159</ele>
        <time>2006-09-21T16:49:36Z</time>
      </trkpt>
      <trkpt lat="45.65135" lon="4.82422">
        <ele>158</ele>
        <time>2006-09-21T16:49:39Z</time>
      </trkpt>
      <trkpt lat="45.65146" lon="4.82456">
        <ele>157</ele>
        <time>2006-09-21T16:49:44Z</time>
      </trkpt>
      <trkpt lat="45.65152" lon="4.82469">
        <ele>157</ele>
        <time>2006-09-21T16:49:46Z</time>
      </trkpt>
      <trkpt lat="45.65169" lon="4.82493">
        <ele>157</ele>
        <time>2006-09-21T16:49:50Z</time>
      </trkpt>
      <trkpt lat="45.65191" lon="4.82502">
        <ele>157</ele>
        <time>2006-09-21T16:49:54Z</time>
      </trkpt>
      <trkpt lat="45.65203" lon="4.82502">
        <ele>158</ele>
        <time>2006-09-21T16:49:56Z</time>
      </trkpt>
      <trkpt lat="45.6524" lon="4.82508">
        <ele>157</ele>
        <time>2006-09-21T16:50:03Z</time>
      </trkpt>
      <trkpt lat="45.65302" lon="4.82484">
        <ele>157</ele>
        <time>2006-09-21T16:50:15Z</time>
      </trkpt>
      <trkpt lat="45.65311" lon="4.82484">
        <ele>157</ele>
        <time>2006-09-21T16:50:21Z</time>
      </trkpt>
      <trkpt lat="45.65309" lon="4.82482">
        <ele>157</ele>
        <time>2006-09-21T16:50:24Z</time>
      </trkpt>
      <trkpt lat="45.65311" lon="4.82459">
        <ele>158</ele>
        <time>2006-09-21T16:50:38Z</time>
      </trkpt>
      <trkpt lat="45.65317" lon="4.82459">
        <ele>158</ele>
        <time>2006-09-21T16:50:40Z</time>
      </trkpt>
      <trkpt lat="45.65326" lon="4.82461">
        <ele>157</ele>
        <time>2006-09-21T16:50:42Z</time>
      </trkpt>
      <trkpt lat="45.65369" lon="4.82446">
        <ele>157</ele>
        <time>2006-09-21T16:50:52Z</time>
      </trkpt>
      <trkpt lat="45.65452" lon="4.82433">
        <ele>156</ele>
        <time>2006-09-21T16:51:17Z</time>
      </trkpt>
      <trkpt lat="45.6548" lon="4.82424">
        <ele>155</ele>
        <time>2006-09-21T16:51:27Z</time>
      </trkpt>
      <trkpt lat="45.65485" lon="4.82429">
        <ele>155</ele>
        <time>2006-09-21T16:51:29Z</time>
      </trkpt>
      <trkpt lat="45.65487" lon="4.82435">
        <ele>155</ele>
        <time>2006-09-21T16:51:31Z</time>
      </trkpt>
      <trkpt lat="45.65489" lon="4.82439">
        <ele>155</ele>
        <time>2006-09-21T16:51:35Z</time>
      </trkpt>
      <trkpt lat="45.65493" lon="4.82446">
        <ele>155</ele>
        <time>2006-09-21T16:51:37Z</time>
      </trkpt>
      <trkpt lat="45.65549" lon="4.82487">
        <ele>155</ele>
        <time>2006-09-21T16:51:50Z</time>
      </trkpt>
      <trkpt lat="45.65637" lon="4.82562">
        <ele>156</ele>
        <time>2006-09-21T16:52:11Z</time>
      </trkpt>
      <trkpt lat="45.65663" lon="4.82617">
        <ele>156</ele>
        <time>2006-09-21T16:52:20Z</time>
      </trkpt>
      <trkpt lat="45.65667" lon="4.82708">
        <ele>156</ele>
        <time>2006-09-21T16:52:36Z</time>
      </trkpt>
      <trkpt lat="45.65673" lon="4.82791">
        <ele>158</ele>
        <time>2006-09-21T16:52:51Z</time>
      </trkpt>
      <trkpt lat="45.65688" lon="4.82806">
        <ele>158</ele>
        <time>2006-09-21T16:52:55Z</time>
      </trkpt>
      <trkpt lat="45.65836" lon="4.82877">
        <ele>157</ele>
        <time>2006-09-21T16:53:23Z</time>
      </trkpt>
      <trkpt lat="45.65845" lon="4.82877">
        <ele>158</ele>
        <time>2006-09-21T16:53:34Z</time>
      </trkpt>
      <trkpt lat="45.65854" lon="4.82875">
        <ele>158</ele>
        <time>2006-09-21T16:53:42Z</time>
      </trkpt>
      <trkpt lat="45.65909" lon="4.82886">
        <ele>160</ele>
        <time>2006-09-21T16:54:03Z</time>
      </trkpt>
      <trkpt lat="45.65989" lon="4.82899">
        <ele>162</ele>
        <time>2006-09-21T16:54:26Z</time>
      </trkpt>
      <trkpt lat="45.66049" lon="4.82896">
        <ele>163</ele>
        <time>2006-09-21T16:54:45Z</time>
      </trkpt>
      <trkpt lat="45.66051" lon="4.82896">
        <ele>163</ele>
        <time>2006-09-21T16:54:48Z</time>
      </trkpt>
      <trkpt lat="45.661" lon="4.82899">
        <ele>162</ele>
        <time>2006-09-21T16:55:00Z</time>
      </trkpt>
      <trkpt lat="45.66173" lon="4.82879">
        <ele>162</ele>
        <time>2006-09-21T16:55:19Z</time>
      </trkpt>
      <trkpt lat="45.66188" lon="4.82879">
        <ele>163</ele>
        <time>2006-09-21T16:55:25Z</time>
      </trkpt>
      <trkpt lat="45.66203" lon="4.82871">
        <ele>164</ele>
        <time>2006-09-21T16:55:32Z</time>
      </trkpt>
      <trkpt lat="45.66364" lon="4.82916">
        <ele>164</ele>
        <time>2006-09-21T16:55:57Z</time>
      </trkpt>
      <trkpt lat="45.66375" lon="4.82922">
        <ele>164</ele>
        <time>2006-09-21T16:56:07Z</time>
      </trkpt>
      <trkpt lat="45.66369" lon="4.82918">
        <ele>164</ele>
        <time>2006-09-21T16:56:11Z</time>
      </trkpt>
      <trkpt lat="45.66392" lon="4.8292">
        <ele>165</ele>
        <time>2006-09-21T16:56:23Z</time>
      </trkpt>
      <trkpt lat="45.66409" lon="4.8292">
        <ele>165</ele>
        <time>2006-09-21T16:56:33Z</time>
      </trkpt>
      <trkpt lat="45.66439" lon="4.82911">
        <ele>165</ele>
        <time>2006-09-21T16:56:49Z</time>
      </trkpt>
      <trkpt lat="45.66519" lon="4.82931">
        <ele>165</ele>
        <time>2006-09-21T16:57:14Z</time>
      </trkpt>
      <trkpt lat="45.66605" lon="4.82937">
        <ele>166</ele>
        <time>2006-09-21T16:57:36Z</time>
      </trkpt>
      <trkpt lat="45.66697" lon="4.82961">
        <ele>166</ele>
        <time>2006-09-21T16:57:53Z</time>
      </trkpt>
      <trkpt lat="45.66748" lon="4.82969">
        <ele>165</ele>
        <time>2006-09-21T16:58:02Z</time>
      </trkpt>
      <trkpt lat="45.66815" lon="4.82901">
        <ele>166</ele>
        <time>2006-09-21T16:58:16Z</time>
      </trkpt>
      <trkpt lat="45.66871" lon="4.82866">
        <ele>168</ele>
        <time>2006-09-21T16:58:30Z</time>
      </trkpt>
      <trkpt lat="45.66957" lon="4.82866">
        <ele>167</ele>
        <time>2006-09-21T16:58:51Z</time>
      </trkpt>
      <trkpt lat="45.67081" lon="4.82892">
        <ele>166</ele>
        <time>2006-09-21T16:59:16Z</time>
      </trkpt>
      <trkpt lat="45.67128" lon="4.82926">
        <ele>165</ele>
        <time>2006-09-21T16:59:25Z</time>
      </trkpt>
      <trkpt lat="45.67141" lon="4.82941">
        <ele>166</ele>
        <time>2006-09-21T16:59:28Z</time>
      </trkpt>
      <trkpt lat="45.67227" lon="4.82995">
        <ele>165</ele>
        <time>2006-09-21T16:59:45Z</time>
      </trkpt>
      <trkpt lat="45.67246" lon="4.83008">
        <ele>165</ele>
        <time>2006-09-21T16:59:49Z</time>
      </trkpt>
      <trkpt lat="45.67326" lon="4.83034">
        <ele>166</ele>
        <time>2006-09-21T17:00:02Z</time>
      </trkpt>
      <trkpt lat="45.67381" lon="4.83057">
        <ele>167</ele>
        <time>2006-09-21T17:00:15Z</time>
      </trkpt>
      <trkpt lat="45.67534" lon="4.83102">
        <ele>165</ele>
        <time>2006-09-21T17:00:49Z</time>
      </trkpt>
      <trkpt lat="45.67564" lon="4.83109">
        <ele>165</ele>
        <time>2006-09-21T17:00:55Z</time>
      </trkpt>
      <trkpt lat="45.67596" lon="4.83169">
        <ele>165</ele>
        <time>2006-09-21T17:01:05Z</time>
      </trkpt>
      <trkpt lat="45.67598" lon="4.83175">
        <ele>166</ele>
        <time>2006-09-21T17:01:06Z</time>
      </trkpt>
      <trkpt lat="45.67613" lon="4.83195">
        <ele>166</ele>
        <time>2006-09-21T17:01:10Z</time>
      </trkpt>
      <trkpt lat="45.67637" lon="4.83199">
        <ele>166</ele>
        <time>2006-09-21T17:01:16Z</time>
      </trkpt>
      <trkpt lat="45.67714" lon="4.83171">
        <ele>167</ele>
        <time>2006-09-21T17:01:36Z</time>
      </trkpt>
      <trkpt lat="45.67789" lon="4.83201">
        <ele>167</ele>
        <time>2006-09-21T17:01:54Z</time>
      </trkpt>
      <trkpt lat="45.67856" lon="4.83212">
        <ele>167</ele>
        <time>2006-09-21T17:02:13Z</time>
      </trkpt>
      <trkpt lat="45.67909" lon="4.83167">
        <ele>166</ele>
        <time>2006-09-21T17:02:31Z</time>
      </trkpt>
      <trkpt lat="45.67987" lon="4.83115">
        <ele>166</ele>
        <time>2006-09-21T17:02:54Z</time>
      </trkpt>
      <trkpt lat="45.68068" lon="4.83083">
        <ele>165</ele>
        <time>2006-09-21T17:03:13Z</time>
      </trkpt>
      <trkpt lat="45.68158" lon="4.83092">
        <ele>165</ele>
        <time>2006-09-21T17:03:29Z</time>
      </trkpt>
      <trkpt lat="45.68311" lon="4.83122">
        <ele>166</ele>
        <time>2006-09-21T17:03:53Z</time>
      </trkpt>
      <trkpt lat="45.68426" lon="4.83147">
        <ele>166</ele>
        <time>2006-09-21T17:04:11Z</time>
      </trkpt>
      <trkpt lat="45.68433" lon="4.83147">
        <ele>166</ele>
        <time>2006-09-21T17:04:14Z</time>
      </trkpt>
      <trkpt lat="45.68452" lon="4.83137">
        <ele>167</ele>
        <time>2006-09-21T17:04:23Z</time>
      </trkpt>
      <trkpt lat="45.68454" lon="4.83132">
        <ele>168</ele>
        <time>2006-09-21T17:04:24Z</time>
      </trkpt>
      <trkpt lat="45.68461" lon="4.83047">
        <ele>168</ele>
        <time>2006-09-21T17:04:39Z</time>
      </trkpt>
      <trkpt lat="45.68452" lon="4.8289">
        <ele>169</ele>
        <time>2006-09-21T17:05:02Z</time>
      </trkpt>
      <trkpt lat="45.68444" lon="4.82778">
        <ele>169</ele>
        <time>2006-09-21T17:05:16Z</time>
      </trkpt>
      <trkpt lat="45.68448" lon="4.82753">
        <ele>170</ele>
        <time>2006-09-21T17:05:19Z</time>
      </trkpt>
      <trkpt lat="45.68431" lon="4.82712">
        <ele>170</ele>
        <time>2006-09-21T17:05:27Z</time>
      </trkpt>
      <trkpt lat="45.68399" lon="4.82682">
        <ele>173</ele>
        <time>2006-09-21T17:05:41Z</time>
      </trkpt>
      <trkpt lat="45.68366" lon="4.82669">
        <ele>176</ele>
        <time>2006-09-21T17:05:57Z</time>
      </trkpt>
      <trkpt lat="45.6833" lon="4.82669">
        <ele>181</ele>
        <time>2006-09-21T17:06:18Z</time>
      </trkpt>
      <trkpt lat="45.68281" lon="4.82671">
        <ele>185</ele>
        <time>2006-09-21T17:06:46Z</time>
      </trkpt>
      <trkpt lat="45.68242" lon="4.82678">
        <ele>187</ele>
        <time>2006-09-21T17:07:09Z</time>
      </trkpt>
      <trkpt lat="45.68193" lon="4.8269">
        <ele>192</ele>
        <time>2006-09-21T17:07:38Z</time>
      </trkpt>
      <trkpt lat="45.68165" lon="4.82686">
        <ele>194</ele>
        <time>2006-09-21T17:07:55Z</time>
      </trkpt>
      <trkpt lat="45.68152" lon="4.82686">
        <ele>196</ele>
        <time>2006-09-21T17:08:12Z</time>
      </trkpt>
      <trkpt lat="45.68098" lon="4.82688">
        <ele>200</ele>
        <time>2006-09-21T17:08:45Z</time>
      </trkpt>
      <trkpt lat="45.68092" lon="4.8269">
        <ele>201</ele>
        <time>2006-09-21T17:08:50Z</time>
      </trkpt>
      <trkpt lat="45.68087" lon="4.82693">
        <ele>201</ele>
        <time>2006-09-21T17:08:53Z</time>
      </trkpt>
      <trkpt lat="45.68055" lon="4.82688">
        <ele>204</ele>
        <time>2006-09-21T17:09:19Z</time>
      </trkpt>
      <trkpt lat="45.68006" lon="4.82688">
        <ele>209</ele>
        <time>2006-09-21T17:09:57Z</time>
      </trkpt>
      <trkpt lat="45.67982" lon="4.82682">
        <ele>211</ele>
        <time>2006-09-21T17:10:15Z</time>
      </trkpt>
      <trkpt lat="45.67935" lon="4.82654">
        <ele>216</ele>
        <time>2006-09-21T17:10:56Z</time>
      </trkpt>
      <trkpt lat="45.67931" lon="4.82652">
        <ele>218</ele>
        <time>2006-09-21T17:11:13Z</time>
      </trkpt>
      <trkpt lat="45.6792" lon="4.82641">
        <ele>233</ele>
        <time>2006-09-21T17:12:45Z</time>
      </trkpt>
      <trkpt lat="45.67909" lon="4.82624">
        <ele>233</ele>
        <time>2006-09-21T17:12:51Z</time>
      </trkpt>
      <trkpt lat="45.67836" lon="4.82549">
        <ele>235</ele>
        <time>2006-09-21T17:13:21Z</time>
      </trkpt>
      <trkpt lat="45.67774" lon="4.82499">
        <ele>236</ele>
        <time>2006-09-21T17:13:37Z</time>
      </trkpt>
      <trkpt lat="45.67746" lon="4.82469">
        <ele>237</ele>
        <time>2006-09-21T17:13:44Z</time>
      </trkpt>
      <trkpt lat="45.67684" lon="4.82358">
        <ele>237</ele>
        <time>2006-09-21T17:14:03Z</time>
      </trkpt>
      <trkpt lat="45.67678" lon="4.82347">
        <ele>237</ele>
        <time>2006-09-21T17:14:05Z</time>
      </trkpt>
      <trkpt lat="45.67628" lon="4.82306">
        <ele>236</ele>
        <time>2006-09-21T17:14:15Z</time>
      </trkpt>
      <trkpt lat="45.67585" lon="4.82293">
        <ele>232</ele>
        <time>2006-09-21T17:14:21Z</time>
      </trkpt>
      <trkpt lat="45.67566" lon="4.82272">
        <ele>230</ele>
        <time>2006-09-21T17:14:25Z</time>
      </trkpt>
      <trkpt lat="45.67602" lon="4.8216">
        <ele>230</ele>
        <time>2006-09-21T17:14:38Z</time>
      </trkpt>
      <trkpt lat="45.67617" lon="4.82107">
        <ele>231</ele>
        <time>2006-09-21T17:14:44Z</time>
      </trkpt>
      <trkpt lat="45.67611" lon="4.81952">
        <ele>234</ele>
        <time>2006-09-21T17:15:02Z</time>
      </trkpt>
      <trkpt lat="45.67611" lon="4.81922">
        <ele>235</ele>
        <time>2006-09-21T17:15:06Z</time>
      </trkpt>
      <trkpt lat="45.67639" lon="4.81869">
        <ele>236</ele>
        <time>2006-09-21T17:15:15Z</time>
      </trkpt>
      <trkpt lat="45.67652" lon="4.81847">
        <ele>236</ele>
        <time>2006-09-21T17:15:19Z</time>
      </trkpt>
      <trkpt lat="45.67658" lon="4.81804">
        <ele>238</ele>
        <time>2006-09-21T17:15:25Z</time>
      </trkpt>
      <trkpt lat="45.67652" lon="4.81783">
        <ele>238</ele>
        <time>2006-09-21T17:15:28Z</time>
      </trkpt>
      <trkpt lat="45.67632" lon="4.81736">
        <ele>237</ele>
        <time>2006-09-21T17:15:36Z</time>
      </trkpt>
      <trkpt lat="45.67643" lon="4.81708">
        <ele>239</ele>
        <time>2006-09-21T17:15:42Z</time>
      </trkpt>
      <trkpt lat="45.67716" lon="4.81613">
        <ele>241</ele>
        <time>2006-09-21T17:16:00Z</time>
      </trkpt>
      <trkpt lat="45.67772" lon="4.81508">
        <ele>242</ele>
        <time>2006-09-21T17:16:18Z</time>
      </trkpt>
      <trkpt lat="45.67843" lon="4.81354">
        <ele>245</ele>
        <time>2006-09-21T17:16:41Z</time>
      </trkpt>
      <trkpt lat="45.67901" lon="4.81248">
        <ele>244</ele>
        <time>2006-09-21T17:16:56Z</time>
      </trkpt>
      <trkpt lat="45.67907" lon="4.81227">
        <ele>244</ele>
        <time>2006-09-21T17:17:00Z</time>
      </trkpt>
      <trkpt lat="45.67896" lon="4.81221">
        <ele>244</ele>
        <time>2006-09-21T17:17:05Z</time>
      </trkpt>
      <trkpt lat="45.67862" lon="4.81233">
        <ele>245</ele>
        <time>2006-09-21T17:17:13Z</time>
      </trkpt>
      <trkpt lat="45.67793" lon="4.81233">
        <ele>247</ele>
        <time>2006-09-21T17:17:29Z</time>
      </trkpt>
      <trkpt lat="45.67789" lon="4.81233">
        <ele>247</ele>
        <time>2006-09-21T17:17:30Z</time>
      </trkpt>
      <trkpt lat="45.67791" lon="4.81186">
        <ele>246</ele>
        <time>2006-09-21T17:17:40Z</time>
      </trkpt>
      <trkpt lat="45.67808" lon="4.81042">
        <ele>249</ele>
        <time>2006-09-21T17:18:02Z</time>
      </trkpt>
      <trkpt lat="45.67808" lon="4.80961">
        <ele>251</ele>
        <time>2006-09-21T17:18:18Z</time>
      </trkpt>
      <trkpt lat="45.678" lon="4.80942">
        <ele>251</ele>
        <time>2006-09-21T17:18:23Z</time>
      </trkpt>
      <trkpt lat="45.67778" lon="4.80894">
        <ele>252</ele>
        <time>2006-09-21T17:18:38Z</time>
      </trkpt>
      <trkpt lat="45.67776" lon="4.80888">
        <ele>252</ele>
        <time>2006-09-21T17:18:40Z</time>
      </trkpt>
      <trkpt lat="45.67815" lon="4.80843">
        <ele>256</ele>
        <time>2006-09-21T17:18:58Z</time>
      </trkpt>
      <trkpt lat="45.67832" lon="4.80781">
        <ele>260</ele>
        <time>2006-09-21T17:19:15Z</time>
      </trkpt>
      <trkpt lat="45.67823" lon="4.80706">
        <ele>264</ele>
        <time>2006-09-21T17:19:34Z</time>
      </trkpt>
      <trkpt lat="45.678" lon="4.80699">
        <ele>264</ele>
        <time>2006-09-21T17:35:00Z</time>
      </trkpt>
      <trkpt lat="45.67845" lon="4.80654">
        <ele>264</ele>
        <time>2006-09-21T17:35:22Z</time>
      </trkpt>
      <trkpt lat="45.67884" lon="4.80594">
        <ele>263</ele>
        <time>2006-09-21T17:35:42Z</time>
      </trkpt>
      <trkpt lat="45.67881" lon="4.80583">
        <ele>261</ele>
        <time>2006-09-21T17:35:55Z</time>
      </trkpt>
      <trkpt lat="45.67879" lon="4.80581">
        <ele>261</ele>
        <time>2006-09-21T17:36:03Z</time>
      </trkpt>
      <trkpt lat="45.6786" lon="4.80568">
        <ele>261</ele>
        <time>2006-09-21T17:36:11Z</time>
      </trkpt>
      <trkpt lat="45.67849" lon="4.80564">
        <ele>261</ele>
        <time>2006-09-21T17:36:14Z</time>
      </trkpt>
      <trkpt lat="45.67804" lon="4.80525">
        <ele>261</ele>
        <time>2006-09-21T17:36:28Z</time>
      </trkpt>
      <trkpt lat="45.678" lon="4.80512">
        <ele>261</ele>
        <time>2006-09-21T17:36:32Z</time>
      </trkpt>
      <trkpt lat="45.67793" lon="4.80506">
        <ele>261</ele>
        <time>2006-09-21T17:36:36Z</time>
      </trkpt>
      <trkpt lat="45.67776" lon="4.80502">
        <ele>261</ele>
        <time>2006-09-21T17:36:52Z</time>
      </trkpt>
      <trkpt lat="45.67774" lon="4.80502">
        <ele>260</ele>
        <time>2006-09-21T17:36:56Z</time>
      </trkpt>
      <trkpt lat="45.67751" lon="4.80512">
        <ele>259</ele>
        <time>2006-09-21T17:37:21Z</time>
      </trkpt>
      <trkpt lat="45.67755" lon="4.80536">
        <ele>262</ele>
        <time>2006-09-21T17:38:12Z</time>
      </trkpt>
      <trkpt lat="45.67746" lon="4.80542">
        <ele>264</ele>
        <time>2006-09-21T17:38:39Z</time>
      </trkpt>
      <trkpt lat="45.67733" lon="4.80557">
        <ele>265</ele>
        <time>2006-09-21T17:39:13Z</time>
      </trkpt>
      <trkpt lat="45.67729" lon="4.8059">
        <ele>266</ele>
        <time>2006-09-21T17:39:40Z</time>
      </trkpt>
      <trkpt lat="45.67729" lon="4.80628">
        <ele>266</ele>
        <time>2006-09-21T17:40:21Z</time>
      </trkpt>
      <trkpt lat="45.67716" lon="4.80652">
        <ele>266</ele>
        <time>2006-09-21T17:41:01Z</time>
      </trkpt>
      <trkpt lat="45.67703" lon="4.80676">
        <ele>266</ele>
        <time>2006-09-21T17:41:07Z</time>
      </trkpt>
      <trkpt lat="45.67673" lon="4.8071">
        <ele>264</ele>
        <time>2006-09-21T17:41:15Z</time>
      </trkpt>
      <trkpt lat="45.67667" lon="4.80701">
        <ele>263</ele>
        <time>2006-09-21T17:41:21Z</time>
      </trkpt>
      <trkpt lat="45.67671" lon="4.80637">
        <ele>261</ele>
        <time>2006-09-21T17:41:41Z</time>
      </trkpt>
      <trkpt lat="45.67682" lon="4.80508">
        <ele>259</ele>
        <time>2006-09-21T17:42:20Z</time>
      </trkpt>
      <trkpt lat="45.67688" lon="4.80414">
        <ele>258</ele>
        <time>2006-09-21T17:42:45Z</time>
      </trkpt>
      <trkpt lat="45.67686" lon="4.80397">
        <ele>257</ele>
        <time>2006-09-21T17:43:02Z</time>
      </trkpt>
      <trkpt lat="45.67684" lon="4.80388">
        <ele>257</ele>
        <time>2006-09-21T17:43:19Z</time>
      </trkpt>
      <trkpt lat="45.67682" lon="4.80343">
        <ele>256</ele>
        <time>2006-09-21T17:43:34Z</time>
      </trkpt>
      <trkpt lat="45.67686" lon="4.80244">
        <ele>254</ele>
        <time>2006-09-21T17:44:01Z</time>
      </trkpt>
      <trkpt lat="45.67684" lon="4.80227">
        <ele>253</ele>
        <time>2006-09-21T17:44:07Z</time>
      </trkpt>
      <trkpt lat="45.67678" lon="4.80233">
        <ele>253</ele>
        <time>2006-09-21T17:44:14Z</time>
      </trkpt>
      <trkpt lat="45.67673" lon="4.80236">
        <ele>253</ele>
        <time>2006-09-21T17:44:31Z</time>
      </trkpt>
      <trkpt lat="45.67667" lon="4.80238">
        <ele>252</ele>
        <time>2006-09-21T17:44:56Z</time>
      </trkpt>
      <trkpt lat="45.6765" lon="4.80236">
        <ele>254</ele>
        <time>2006-09-21T17:47:12Z</time>
      </trkpt>
      <trkpt lat="45.67613" lon="4.80221">
        <ele>253</ele>
        <time>2006-09-21T17:47:28Z</time>
      </trkpt>
      <trkpt lat="45.67575" lon="4.80208">
        <ele>253</ele>
        <time>2006-09-21T17:47:48Z</time>
      </trkpt>
      <trkpt lat="45.67538" lon="4.80195">
        <ele>255</ele>
        <time>2006-09-21T17:48:07Z</time>
      </trkpt>
      <trkpt lat="45.67525" lon="4.80193">
        <ele>255</ele>
        <time>2006-09-21T17:48:21Z</time>
      </trkpt>
      <trkpt lat="45.67504" lon="4.80191">
        <ele>256</ele>
        <time>2006-09-21T17:48:46Z</time>
      </trkpt>
      <trkpt lat="45.67469" lon="4.80191">
        <ele>256</ele>
        <time>2006-09-21T17:49:08Z</time>
      </trkpt>
      <trkpt lat="45.67467" lon="4.80188">
        <ele>255</ele>
        <time>2006-09-21T17:49:19Z</time>
      </trkpt>
      <trkpt lat="45.67461" lon="4.80197">
        <ele>256</ele>
        <time>2006-09-21T17:49:28Z</time>
      </trkpt>
      <trkpt lat="45.67459" lon="4.80216">
        <ele>255</ele>
        <time>2006-09-21T17:49:33Z</time>
      </trkpt>
      <trkpt lat="45.67457" lon="4.80231">
        <ele>254</ele>
        <time>2006-09-21T17:49:46Z</time>
      </trkpt>
      <trkpt lat="45.67452" lon="4.80266">
        <ele>253</ele>
        <time>2006-09-21T17:49:58Z</time>
      </trkpt>
      <trkpt lat="45.67446" lon="4.80336">
        <ele>252</ele>
        <time>2006-09-21T17:50:12Z</time>
      </trkpt>
      <trkpt lat="45.67439" lon="4.80437">
        <ele>251</ele>
        <time>2006-09-21T17:50:33Z</time>
      </trkpt>
      <trkpt lat="45.67433" lon="4.80508">
        <ele>251</ele>
        <time>2006-09-21T17:50:51Z</time>
      </trkpt>
      <trkpt lat="45.67433" lon="4.80545">
        <ele>250</ele>
        <time>2006-09-21T17:51:04Z</time>
      </trkpt>
      <trkpt lat="45.67431" lon="4.80581">
        <ele>250</ele>
        <time>2006-09-21T17:51:22Z</time>
      </trkpt>
      <trkpt lat="45.67424" lon="4.8071">
        <ele>249</ele>
        <time>2006-09-21T17:51:48Z</time>
      </trkpt>
      <trkpt lat="45.67424" lon="4.80714">
        <ele>248</ele>
        <time>2006-09-21T17:51:50Z</time>
      </trkpt>
      <trkpt lat="45.6742" lon="4.80716">
        <ele>248</ele>
        <time>2006-09-21T17:52:01Z</time>
      </trkpt>
      <trkpt lat="45.67418" lon="4.80718">
        <ele>251</ele>
        <time>2006-09-21T17:52:39Z</time>
      </trkpt>
      <trkpt lat="45.67409" lon="4.80718">
        <ele>251</ele>
        <time>2006-09-21T17:52:57Z</time>
      </trkpt>
      <trkpt lat="45.67386" lon="4.80712">
        <ele>250</ele>
        <time>2006-09-21T17:53:09Z</time>
      </trkpt>
      <trkpt lat="45.67349" lon="4.8071">
        <ele>249</ele>
        <time>2006-09-21T17:53:25Z</time>
      </trkpt>
      <trkpt lat="45.67287" lon="4.80708">
        <ele>249</ele>
        <time>2006-09-21T17:53:44Z</time>
      </trkpt>
      <trkpt lat="45.67251" lon="4.80703">
        <ele>249</ele>
        <time>2006-09-21T17:54:01Z</time>
      </trkpt>
      <trkpt lat="45.67248" lon="4.80703">
        <ele>249</ele>
        <time>2006-09-21T17:54:12Z</time>
      </trkpt>
      <trkpt lat="45.67205" lon="4.80693">
        <ele>248</ele>
        <time>2006-09-21T17:54:28Z</time>
      </trkpt>
      <trkpt lat="45.67139" lon="4.80684">
        <ele>249</ele>
        <time>2006-09-21T17:54:49Z</time>
      </trkpt>
      <trkpt lat="45.67111" lon="4.80686">
        <ele>249</ele>
        <time>2006-09-21T17:55:01Z</time>
      </trkpt>
      <trkpt lat="45.6706" lon="4.80682">
        <ele>248</ele>
        <time>2006-09-21T17:55:18Z</time>
      </trkpt>
      <trkpt lat="45.66991" lon="4.80693">
        <ele>248</ele>
        <time>2006-09-21T17:55:38Z</time>
      </trkpt>
      <trkpt lat="45.6698" lon="4.80697">
        <ele>248</ele>
        <time>2006-09-21T17:55:42Z</time>
      </trkpt>
      <trkpt lat="45.6698" lon="4.80708">
        <ele>248</ele>
        <time>2006-09-21T17:55:46Z</time>
      </trkpt>
      <trkpt lat="45.66984" lon="4.80742">
        <ele>246</ele>
        <time>2006-09-21T17:56:01Z</time>
      </trkpt>
      <trkpt lat="45.66984" lon="4.80759">
        <ele>246</ele>
        <time>2006-09-21T17:56:12Z</time>
      </trkpt>
      <trkpt lat="45.66984" lon="4.80761">
        <ele>246</ele>
        <time>2006-09-21T17:56:15Z</time>
      </trkpt>
      <trkpt lat="45.66989" lon="4.80819">
        <ele>242</ele>
        <time>2006-09-21T17:56:26Z</time>
      </trkpt>
      <trkpt lat="45.66999" lon="4.80978">
        <ele>240</ele>
        <time>2006-09-21T17:56:45Z</time>
      </trkpt>
      <trkpt lat="45.66999" lon="4.80997">
        <ele>240</ele>
        <time>2006-09-21T17:56:48Z</time>
      </trkpt>
      <trkpt lat="45.66984" lon="4.81019">
        <ele>241</ele>
        <time>2006-09-21T17:56:54Z</time>
      </trkpt>
      <trkpt lat="45.66905" lon="4.81023">
        <ele>240</ele>
        <time>2006-09-21T17:57:11Z</time>
      </trkpt>
      <trkpt lat="45.66894" lon="4.81051">
        <ele>239</ele>
        <time>2006-09-21T17:57:18Z</time>
      </trkpt>
      <trkpt lat="45.66896" lon="4.81053">
        <ele>239</ele>
        <time>2006-09-21T17:57:19Z</time>
      </trkpt>
      <trkpt lat="45.66924" lon="4.81094">
        <ele>243</ele>
        <time>2006-09-21T17:57:37Z</time>
      </trkpt>
      <trkpt lat="45.66924" lon="4.81111">
        <ele>243</ele>
        <time>2006-09-21T17:57:43Z</time>
      </trkpt>
      <trkpt lat="45.66924" lon="4.81096">
        <ele>243</ele>
        <time>2006-09-21T17:57:58Z</time>
      </trkpt>
      <trkpt lat="45.66924" lon="4.81094">
        <ele>242</ele>
        <time>2006-09-21T17:58:08Z</time>
      </trkpt>
      <trkpt lat="45.66899" lon="4.81055">
        <ele>239</ele>
        <time>2006-09-21T17:58:21Z</time>
      </trkpt>
      <trkpt lat="45.66886" lon="4.81032">
        <ele>237</ele>
        <time>2006-09-21T17:58:30Z</time>
      </trkpt>
      <trkpt lat="45.66851" lon="4.81034">
        <ele>236</ele>
        <time>2006-09-21T17:58:41Z</time>
      </trkpt>
      <trkpt lat="45.66843" lon="4.81075">
        <ele>237</ele>
        <time>2006-09-21T17:58:51Z</time>
      </trkpt>
      <trkpt lat="45.66871" lon="4.81115">
        <ele>240</ele>
        <time>2006-09-21T17:59:05Z</time>
      </trkpt>
      <trkpt lat="45.66927" lon="4.81118">
        <ele>243</ele>
        <time>2006-09-21T17:59:23Z</time>
      </trkpt>
      <trkpt lat="45.66931" lon="4.81113">
        <ele>242</ele>
        <time>2006-09-21T17:59:34Z</time>
      </trkpt>
      <trkpt lat="45.66929" lon="4.81109">
        <ele>241</ele>
        <time>2006-09-21T18:00:52Z</time>
      </trkpt>
    </trkseg>
  </trk>
</gpx>